Flight Track Log - Related Links

Times and Time Zones

All times are in EST time to prevent confusion due to time zone crossing. See the SIA21 flight status page for this flight to view local times or setup timezone preferences in your user account.

Time Position Orientation Groundspeed Altitude Reporting Facility
EST Latitude Longitude Course Direction KTS MPH feet Rate Location/Type
Mon 11:06:43 PM 40.6721 -74.1814 North 171 197 400  Level FlightAware ADS-B
Mon 11:06:52 PM 40.6665 -74.1849 205° Southwest 167 192 700 2,000 Climbing FlightAware ADS-B
Mon 11:07:01 PM 40.6593 -74.1876 196° South 169 194 1,000 1,765 Climbing FlightAware ADS-B
Mon 11:07:09 PM 40.6530 -74.1880 183° South 169 194 1,200 1,579 Climbing FlightAware ADS-B
Mon 11:07:20 PM 40.6450 -74.1891 186° South 167 192 1,500 1,364 Climbing FlightAware ADS-B
Mon 11:07:31 PM 40.6369 -74.1929 200° South 167 192 1,700 913 Climbing FlightAware ADS-B
Mon 11:08:06 PM 40.6160 -74.2179 222° Southwest 186 214 2,200 900 Climbing FlightAware ADS-B
Mon 11:08:11 PM 40.6158 -74.2240 268° West 205 236 2,300 1,385 Climbing FlightAware ADS-B
Mon 11:08:19 PM 40.6175 -74.2336 283° West 217 250 2,500 1,826 Climbing FlightAware ADS-B
Mon 11:08:34 PM 40.6280 -74.2502 310° West 224 258 3,000 2,000 Climbing FlightAware ADS-B
Mon 11:08:40 PM 40.6339 -74.2542 333° Northwest 245 282 3,200 2,667 Climbing FlightAware ADS-B
Mon 11:08:43 PM 40.6374 -74.2558 341° North 252 290 3,400 2,087 Climbing FlightAware ADS-B
Mon 11:09:03 PM 40.6620 -74.2568 358° North 263 303 4,000 1,714 Climbing FlightAware ADS-B
Mon 11:09:25 PM 40.6888 -74.2390 27° Northeast 308 354 4,600 1,920 Climbing FlightAware ADS-B
Mon 11:09:53 PM 40.7201 -74.2056 39° Northeast 308 354 5,600 2,323 Climbing FlightAware ADS-B
Mon 11:09:56 PM 40.7238 -74.2013 41° Northeast 320 368 5,800 2,211 Climbing FlightAware ADS-B
Mon 11:10:12 PM 40.7421 -74.1799 42° Northeast 328 377 6,300 1,412 Climbing FlightAware ADS-B
Mon 11:10:30 PM 40.7629 -74.1559 41° Northeast 342 394 6,600 1,059 Climbing FlightAware ADS-B
Mon 11:10:46 PM 40.7826 -74.1332 41° Northeast 359 413 6,900 1,135 Climbing FlightAware ADS-B
Mon 11:11:07 PM 40.8089 -74.1030 41° Northeast 378 435 7,300 1,667 Climbing FlightAware ADS-B
Mon 11:11:22 PM 40.8297 -74.0788 41° Northeast 383 441 7,900 2,000 Climbing FlightAware ADS-B
Mon 11:11:40 PM 40.8530 -74.0516 41° Northeast 392 451 8,400 2,229 Climbing FlightAware ADS-B
Mon 11:11:57 PM 40.8763 -74.0245 41° Northeast 392 451 9,200 2,813 Climbing FlightAware ADS-B
Mon 11:12:12 PM 40.8966 -74.0008 41° Northeast 391 450 9,900 2,298 Climbing FlightAware ADS-B
Mon 11:12:44 PM 40.9413 -73.9490 41° Northeast 400 460 11,000 1,905 Climbing FlightAware ADS-B
Mon 11:13:15 PM 40.9842 -73.8990 41° Northeast 413 475 11,900 1,765 Climbing FlightAware ADS-B
Mon 11:13:35 PM 41.0132 -73.8650 42° Northeast 411 473 12,500 1,800 Climbing FlightAware ADS-B (KWWD)
Mon 11:13:45 PM 41.0282 -73.8477 41° Northeast 422 486 12,800 2,063 Climbing FlightAware ADS-B
Mon 11:14:07 PM 41.0608 -73.8095 41° Northeast 419 482 13,600 2,167 Climbing FlightAware ADS-B (KWWD)
Mon 11:14:21 PM 41.0814 -73.7853 42° Northeast 426 490 14,100 1,714 Climbing FlightAware ADS-B
Mon 11:14:56 PM 41.1334 -73.7242 42° Northeast 431 496 15,000 1,660 Climbing FlightAware ADS-B (KWWD)
Mon 11:15:55 PM 41.2230 -73.6190 41° Northeast 451 519 16,700 1,481 Climbing FlightAware ADS-B
Mon 11:16:13 PM 41.2525 -73.5840 42° Northeast 455 524 16,900 1,000 Climbing FlightAware ADS-B (KSNC)
Mon 11:16:43 PM 41.2906 -73.5389 42° Northeast 456 525 17,500 1,524 Climbing FlightAware ADS-B (KSNC)
Mon 11:17:16 PM 41.3511 -73.4672 42° Northeast 461 531 18,500 1,714 Climbing FlightAware ADS-B (KSNC)
Mon 11:17:46 PM 41.3988 -73.4110 41° Northeast 467 537 19,300 1,600 Climbing FlightAware ADS-B (KSNC)
Mon 11:18:16 PM 41.4263 -73.3778 42° Northeast 471 542 20,100 1,400 Climbing FlightAware ADS-B (KSNC)
Mon 11:18:46 PM 41.4964 -73.2924 42° Northeast 479 551 20,700 900 Climbing FlightAware ADS-B (KSNC)
Mon 11:19:16 PM 41.5480 -73.2372 39° Northeast 479 551 21,000 783 Climbing FlightAware ADS-B (KSNC)
Mon 11:19:55 PM 41.6201 -73.1786 31° Northeast 485 558 21,600 1,014 Climbing FlightAware ADS-B (KSNC)
Mon 11:20:27 PM 41.6838 -73.1277 31° Northeast 489 563 22,200 1,183 Climbing FlightAware ADS-B (KSNC)
Mon 11:21:06 PM 41.7594 -73.0661 31° Northeast 492 566 23,000 1,029 Climbing FlightAware ADS-B (KSNC)
Mon 11:21:37 PM 41.8195 -73.0171 31° Northeast 497 572 23,400 885 Climbing FlightAware ADS-B (KSNC)
Mon 11:22:07 PM 41.8769 -72.9700 31° Northeast 502 578 23,900 857 Climbing FlightAware ADS-B (KSNC)
Mon 11:22:47 PM 41.9537 -72.9071 31° Northeast 509 586 24,400 857 Climbing FlightAware ADS-B (KSNC)
Mon 11:23:17 PM 42.0184 -72.8540 31° Northeast 513 590 24,900 857 Climbing FlightAware ADS-B (KSNC)
Mon 11:23:57 PM 42.0983 -72.7883 31° Northeast 517 595 25,400 900 Climbing FlightAware ADS-B (KSNC)
Mon 11:24:37 PM 42.1782 -72.7220 32° Northeast 521 600 26,100 771 Climbing FlightAware ADS-B (KSNC)
Mon 11:25:07 PM 42.2445 -72.6671 31° Northeast 526 605 26,300 600 Climbing FlightAware ADS-B (KSNC)
Mon 11:25:37 PM 42.3057 -72.6162 32° Northeast 530 610 26,700 800 Climbing FlightAware ADS-B
Mon 11:26:07 PM 42.3690 -72.5634 32° Northeast 535 616 27,100 800 Climbing FlightAware ADS-B (KSNC)
Mon 11:26:37 PM 42.4340 -72.5091 32° Northeast 539 620 27,500 800 Climbing FlightAware ADS-B (KSNC)
Mon 11:27:07 PM 42.4944 -72.4588 32° Northeast 542 624 27,900 1,100 Climbing FlightAware ADS-B (KSNC)
Mon 11:27:37 PM 42.5601 -72.4035 32° Northeast 538 619 28,600 1,292 Climbing FlightAware ADS-B (KSNC)
Mon 11:28:12 PM 42.6128 -72.3590 32° Northeast 537 618 29,300 1,217 Climbing FlightAware ADS-B
Mon 11:28:46 PM 42.7041 -72.2821 32° Northeast 535 616 30,000 1,233 Climbing FlightAware ADS-B
Mon 11:29:25 PM 42.7861 -72.2126 32° Northeast 533 613 30,800 1,091 Climbing FlightAware ADS-B
Mon 11:30:14 PM 42.8890 -72.1260 32° Northeast 531 611 31,600 1,082 Climbing FlightAware ADS-B
Mon 11:30:26 PM 42.9105 -72.1068 33° Northeast 528 608 31,900 1,364 Climbing FlightAware ADS-B (KSNC)
Mon 11:30:36 PM 42.9365 -72.0847 32° Northeast 519 597 32,100 1,579 Climbing FlightAware ADS-B
Mon 11:30:45 PM 42.9567 -72.0674 32° Northeast 518 596 32,400 1,200 Climbing FlightAware ADS-B
Mon 11:31:06 PM 42.9998 -72.0306 32° Northeast 523 602 32,700 706 Climbing FlightAware ADS-B (KSNC)
Mon 11:31:36 PM 43.0596 -71.9795 32° Northeast 519 597 33,000 300 Climbing FlightAware ADS-B
Mon 11:32:06 PM 43.1216 -71.9265 32° Northeast 535 616 33,000  Level FlightAware ADS-B
Mon 11:32:11 PM 43.1161 -71.9312 212° Southwest 536 617 33,000  Level FlightAware ADS-B
Mon 11:32:47 PM 43.2075 -71.8527 32° Northeast 539 620 33,000  Level FlightAware ADS-B (KSNC)
Mon 11:32:54 PM 43.2226 -71.8396 32° Northeast 539 620 33,000  Level FlightAware ADS-B (KSNC)
Mon 11:33:25 PM 43.2888 -71.7823 32° Northeast 533 613 33,000  Level FlightAware ADS-B
Mon 11:33:55 PM 43.3528 -71.7269 32° Northeast 533 613 33,000  Level FlightAware ADS-B
Mon 11:34:25 PM 43.4162 -71.6719 32° Northeast 535 616 33,000  Level FlightAware ADS-B
Mon 11:34:55 PM 43.4789 -71.6174 32° Northeast 536 617 33,000  Level FlightAware ADS-B
Mon 11:35:02 PM 43.4929 -71.6052 32° Northeast 537 618 33,000  Level FlightAware ADS-B
Mon 11:35:09 PM 43.5082 -71.5919 32° Northeast 542 624 33,000  Level FlightAware ADS-B
Mon 11:35:44 PM 43.5836 -71.5260 32° Northeast 537 618 33,000  Level FlightAware ADS-B
Mon 11:36:15 PM 43.6495 -71.4684 32° Northeast 539 620 33,000  Level FlightAware ADS-B
Mon 11:36:46 PM 43.7141 -71.4115 32° Northeast 540 621 33,000  Level FlightAware ADS-B
Mon 11:37:17 PM 43.7808 -71.3529 32° Northeast 549 632 33,000  Level FlightAware ADS-B
Mon 11:37:47 PM 43.8450 -71.2970 32° Northeast 550 633 33,000  Level FlightAware ADS-B
Mon 11:37:48 PM 43.8463 -71.2951 47° Northeast 551 634 33,000  Level FlightAware ADS-B
Mon 11:38:25 PM 43.9263 -71.2242 33° Northeast 541 623 33,000  Level FlightAware ADS-B
Mon 11:39:21 PM 44.0462 -71.1176 33° Northeast 553 636 33,000  Level FlightAware ADS-B
Mon 11:40:00 PM 44.1295 -71.0434 33° Northeast 551 634 33,000  Level FlightAware ADS-B
Mon 11:40:36 PM 44.1295 -71.0434 241° Southwest 551 634 33,000  Level FlightAware ADS-B (EGHI / SOU)
Mon 11:41:33 PM 44.3305 -70.8629 33° Northeast 555 639 33,000  Level FlightAware ADS-B
Mon 11:42:18 PM 44.4260 -70.7767 33° Northeast 558 642 33,000  Level FlightAware ADS-B
Mon 11:42:57 PM 44.5048 -70.7052 33° Northeast 558 642 33,000  Level FlightAware ADS-B
Mon 11:43:42 PM 44.5737 -70.6425 33° Northeast 560 644 33,000  Level FlightAware ADS-B
Mon 11:44:50 PM 44.7540 -70.4780 33° Northeast 562 647 33,000  Level FlightAware ADS-B
Mon 11:45:20 PM 44.5048 -70.7052 213° Southwest 563 648 33,000  Level FlightAware ADS-B
Mon 11:45:22 PM 43.9800 -71.1770 213° Southwest 551 634 33,000  Level FlightAware ADS-B
Mon 11:45:56 PM 44.0210 -71.1400 33° Northeast 552 635 33,000  Level FlightAware ADS-B
Mon 11:46:31 PM 44.9750 -70.2740 33° Northeast 563 648 33,000  Level FlightAware ADS-B
Mon 11:47:30 PM 45.0940 -70.1640 33° Northeast 563 648 33,000  Level FlightAware ADS-B
Mon 11:48:15 PM 45.1980 -70.0660 34° Northeast 562 647 33,000  Level FlightAware ADS-B
Mon 11:48:52 PM 45.2741 -69.9952 33° Northeast 559 643 33,000  Level FlightAware ADS-B
Mon 11:49:26 PM 45.3542 -69.9201 33° Northeast 557 641 33,000  Level FlightAware ADS-B
Mon 11:50:07 PM 45.4422 -69.8371 33° Northeast 557 641 33,000  Level FlightAware ADS-B
Mon 11:50:46 PM 45.5266 -69.7572 34° Northeast 556 640 33,000  Level FlightAware ADS-B
Mon 11:51:20 PM 45.5932 -69.6940 34° Northeast 554 638 33,000  Level FlightAware ADS-B
Mon 11:51:50 PM 45.6560 -69.6340 34° Northeast 552 635 33,000  Level FlightAware ADS-B
Mon 11:52:09 PM 45.6955 -69.5964 34° Northeast 551 634 33,000  Level FlightAware ADS-B
Mon 11:52:41 PM 45.7709 -69.5242 34° Northeast 552 635 33,000  Level FlightAware ADS-B
Mon 11:53:20 PM 45.8534 -69.4450 34° Northeast 551 634 33,000  Level FlightAware ADS-B
Mon 11:53:59 PM 45.9308 -69.3705 34° Northeast 551 634 33,000  Level FlightAware ADS-B
Mon 11:54:37 PM 46.0149 -69.2891 34° Northeast 552 635 33,000  Level FlightAware ADS-B
Mon 11:55:30 PM 46.1170 -69.1899 34° Northeast 549 632 33,000  Level FlightAware ADS-B
Mon 11:56:22 PM 46.2290 -69.0800 34° Northeast 547 629 33,000  Level FlightAware ADS-B
Mon 11:57:23 PM 46.3620 -68.9510 34° Northeast 552 635 33,000  Level FlightAware ADS-B
Mon 11:58:10 PM 46.4625 -68.8510 34° Northeast 551 634 33,000  Level FlightAware ADS-B
Mon 11:58:53 PM 46.5510 -68.7640 34° Northeast 549 632 33,000  Level FlightAware ADS-B
Mon 11:59:28 PM 46.6210 -68.6940 34° Northeast 549 632 33,000  Level FlightAware ADS-B
Mon 11:59:59 PM 46.6790 -68.6360 34° Northeast 551 634 33,000  Level FlightAware ADS-B
Tue 12:00:50 AM 46.7930 -68.5220 34° Northeast 551 634 33,000  Level FlightAware ADS-B
Tue 12:01:38 AM 46.8910 -68.4230 35° Northeast 551 634 33,000  Level FlightAware ADS-B
Tue 12:02:22 AM 46.9750 -68.3370 35° Northeast 547 629 33,000  Level FlightAware ADS-B
Tue 12:03:00 AM 47.0670 -68.2450 34° Northeast 541 623 33,000  Level FlightAware ADS-B
Tue 12:03:25 AM 47.1200 -68.1920 34° Northeast 540 621 33,000  Level FlightAware ADS-B
Tue 12:04:30 AM 47.2500 -68.0580 35° Northeast 542 624 33,000  Level FlightAware ADS-B
Tue 12:05:20 AM 47.3550 -67.9510 35° Northeast 543 625 33,000  Level FlightAware ADS-B
Tue 12:05:53 AM 47.4240 -67.8800 35° Northeast 541 623 33,000  Level FlightAware ADS-B
Tue 12:06:16 AM 47.4720 -67.8290 36° Northeast 539 620 33,000  Level FlightAware ADS-B
Tue 12:07:12 AM 47.5800 -67.7000 39° Northeast 546 628 33,000  Level FlightAware ADS-B
Tue 12:08:09 AM 47.6860 -67.5650 41° Northeast 541 623 33,000  Level FlightAware ADS-B
Tue 12:08:25 AM 47.7180 -67.5230 41° Northeast 542 624 33,000  Level FlightAware ADS-B
Tue 12:09:28 AM 47.8200 -67.3920 41° Northeast 542 624 33,000  Level FlightAware ADS-B
Tue 12:10:28 AM 47.9460 -67.2200 42° Northeast 538 619 33,000  Level FlightAware ADS-B
Tue 12:11:00 AM 48.0070 -67.1390 42° Northeast 536 617 33,000  Level FlightAware ADS-B
Tue 12:11:31 AM 48.0640 -67.0620 42° Northeast 540 621 33,000  Level FlightAware ADS-B
Tue 12:12:25 AM 48.1650 -66.9260 42° Northeast 540 621 33,000  Level FlightAware ADS-B
Tue 12:13:29 AM 48.2840 -66.7650 42° Northeast 538 619 33,000  Level FlightAware ADS-B
Tue 12:14:19 AM 48.3740 -66.6410 42° Northeast 534 615 33,000  Level FlightAware ADS-B
Tue 12:15:16 AM 48.4780 -66.4980 42° Northeast 537 618 33,000  Level FlightAware ADS-B
Tue 12:15:48 AM 48.5370 -66.4170 42° Northeast 535 616 33,000  Level FlightAware ADS-B
Tue 12:16:36 AM 48.6230 -66.2980 42° Northeast 530 610 33,000  Level FlightAware ADS-B
Tue 12:17:11 AM 48.6860 -66.2100 43° Northeast 530 610 33,000  Level FlightAware ADS-B
Tue 12:17:40 AM 48.7350 -66.1420 42° Northeast 531 611 33,000  Level FlightAware ADS-B
Tue 12:18:35 AM 48.8380 -65.9980 43° Northeast 532 612 33,000  Level FlightAware ADS-B
Tue 12:19:27 AM 48.9310 -65.8660 43° Northeast 529 609 33,000  Level FlightAware ADS-B
Tue 12:20:21 AM 49.0280 -65.7300 43° Northeast 529 609 33,000  Level FlightAware ADS-B
Tue 12:21:11 AM 49.1170 -65.6030 43° Northeast 529 609 33,000  Level FlightAware ADS-B
Tue 12:21:41 AM 49.1700 -65.5260 44° Northeast 528 608 33,000  Level FlightAware ADS-B
Tue 12:22:35 AM 49.2670 -65.3880 43° Northeast 527 606 33,000  Level FlightAware ADS-B
Tue 12:23:06 AM 49.3220 -65.3090 43° Northeast 524 603 33,000  Level FlightAware ADS-B
Tue 12:23:35 AM 49.3710 -65.2370 44° Northeast 527 606 33,000  Level FlightAware ADS-B
Tue 12:24:28 AM 49.4660 -65.0990 43° Northeast 526 605 33,000  Level FlightAware ADS-B
Tue 12:25:16 AM 49.5510 -64.9750 43° Northeast 526 605 33,000  Level FlightAware ADS-B
Tue 12:26:07 AM 49.6410 -64.8430 44° Northeast 526 605 33,000  Level FlightAware ADS-B
Tue 12:27:04 AM 49.7410 -64.6950 44° Northeast 526 605 33,000  Level FlightAware ADS-B
Tue 12:27:51 AM 49.8240 -64.5730 43° Northeast 526 605 33,000  Level FlightAware ADS-B
Tue 12:28:37 AM 49.8940 -64.4670 44° Northeast 526 605 33,000  Level FlightAware ADS-B
Tue 12:29:37 AM 49.9830 -64.3330 44° Northeast 526 605 33,000  Level FlightAware ADS-B
Tue 12:30:13 AM 50.0370 -64.2530 44° Northeast 526 605 33,000  Level FlightAware ADS-B
Tue 12:31:01 AM 50.1080 -64.1450 44° Northeast 526 605 33,000  Level FlightAware ADS-B
Tue 12:32:01 AM 50.1980 -64.0100 44° Northeast 526 605 33,000  Level FlightAware ADS-B
Tue 12:32:49 AM 50.2690 -63.9030 44° Northeast 526 605 33,000  Level FlightAware ADS-B
Tue 12:33:49 AM 50.3580 -63.7680 44° Northeast 526 605 33,000  Level FlightAware ADS-B
Tue 12:34:37 AM 50.4300 -63.6590 44° Northeast 526 605 33,000  Level FlightAware ADS-B
Tue 12:35:13 AM 50.4830 -63.5780 44° Northeast 526 605 33,000  Level FlightAware ADS-B
Tue 12:35:49 AM 50.5370 -63.4970 44° Northeast 526 605 33,000  Level FlightAware ADS-B
Tue 12:36:49 AM 50.6260 -63.3610 44° Northeast 526 605 33,000  Level FlightAware ADS-B
Tue 12:37:37 AM 50.6970 -63.2520 44° Northeast 526 605 33,000  Level FlightAware ADS-B
Tue 12:38:19 AM 50.8833 -62.8833 44° Northeast 520 598 33,000  Level Moncton Center
Tue 12:39:19 AM 51.0000 -62.7167 42° Northeast 520 598 33,000  Level Moncton Center
Tue 12:40:19 AM 51.1000 -62.5500 46° Northeast 520 598 33,000  Level Moncton Center
Tue 12:40:49 AM 51.1500 -62.4833 40° Northeast 520 598 33,000  Level Gander Center
Tue 12:41:49 AM 51.2500 -62.3167 46° Northeast 510 587 33,000  Level Gander Center
Tue 12:42:19 AM 51.3000 -62.2333 46° Northeast 520 598 33,000  Level Moncton Center
Tue 12:43:19 AM 51.4000 -62.0833 43° Northeast 520 598 33,000  Level Moncton Center
Tue 12:44:19 AM 51.5000 -61.9000 49° Northeast 510 587 33,000  Level Moncton Center
Tue 12:44:49 AM 51.5500 -61.8167 46° Northeast 510 587 33,000  Level Gander Center
Tue 12:45:19 AM 51.6000 -61.7500 40° Northeast 510 587 33,000  Level Moncton Center
Tue 12:46:19 AM 51.7000 -61.5667 49° Northeast 510 587 33,000  Level Moncton Center
Tue 12:47:19 AM 51.8000 -61.4167 43° Northeast 510 587 33,000  Level Moncton Center
Tue 12:47:49 AM 51.8333 -61.3167 62° Northeast 510 587 33,000  Level Gander Center
Tue 12:48:19 AM 51.9000 -61.2167 43° Northeast 510 587 33,000  Level Moncton Center
Tue 12:49:19 AM 51.9833 -61.0500 51° Northeast 510 587 33,000  Level Moncton Center
Tue 12:50:19 AM 52.0833 -60.8833 46° Northeast 510 587 33,000  Level Moncton Center
Tue 12:51:19 AM 52.1833 -60.7167 46° Northeast 510 587 33,000  Level Moncton Center
Tue 12:52:19 AM 52.2667 -60.5333 53° Northeast 500 575 33,000  Level Moncton Center
Tue 12:53:19 AM 52.3667 -60.3667 45° Northeast 500 575 33,000  Level Moncton Center
Tue 12:54:19 AM 52.4500 -60.2167 48° Northeast 500 575 33,000  Level Moncton Center
Tue 12:55:19 AM 52.5333 -60.0167 56° Northeast 500 575 33,000  Level Moncton Center
Tue 12:55:49 AM 52.5833 -59.9667 31° Northeast 500 575 33,000  Level Gander Center
Tue 12:56:49 AM 52.6833 -59.7667 50° Northeast 510 587 33,000  Level Gander Center
Tue 12:57:49 AM 52.7833 -59.6000 45° Northeast 510 587 33,000  Level Gander Center
Tue 12:58:49 AM 52.8833 -59.4333 45° Northeast 500 575 33,000  Level Gander Center
Tue 12:59:49 AM 52.9667 -59.2500 53° Northeast 500 575 33,000  Level Gander Center
Tue 01:00:49 AM 53.0667 -59.0833 45° Northeast 500 575 33,000  Level Gander Center
Tue 01:01:19 AM 53.1000 -58.9667 65° Northeast 500 575 33,000  Level Moncton Center
Tue 01:02:19 AM 53.2000 -58.8167 42° Northeast 500 575 33,000  Level Moncton Center
Tue 01:03:19 AM 53.2833 -58.6000 57° Northeast 500 575 33,000  Level Moncton Center
Tue 01:04:19 AM 53.3667 -58.4500 47° Northeast 500 575 33,000  Level Moncton Center
Tue 01:04:49 AM 53.4167 -58.3667 45° Northeast 500 575 33,000  Level Gander Center
Tue 01:05:49 AM 53.5000 -58.1667 55° Northeast 500 575 33,000  Level Gander Center
Tue 01:06:49 AM 53.5833 -57.9833 53° Northeast 500 575 33,000  Level Gander Center
Tue 01:07:49 AM 53.6833 -57.8167 45° Northeast 500 575 33,000  Level Gander Center
Tue 01:08:49 AM 53.7833 -57.6333 47° Northeast 500 575 33,000  Level Gander Center
Tue 01:09:19 AM 53.8000 -57.5500 71° East 500 575 33,000  Level Moncton Center
Tue 01:10:19 AM 53.9000 -57.3500 50° Northeast 500 575 33,000  Level Moncton Center
Tue 01:11:19 AM 53.9833 -57.1667 52° Northeast 500 575 33,000  Level Moncton Center
Tue 01:12:19 AM 54.0667 -56.9833 52° Northeast 500 575 33,000  Level Moncton Center
Tue 01:13:19 AM 54.1667 -56.8000 47° Northeast 500 575 33,000  Level Moncton Center
Tue 01:14:19 AM 54.2500 -56.6333 49° Northeast 500 575 33,000  Level Moncton Center
Tue 01:15:19 AM 54.3333 -56.4167 57° Northeast 500 575 33,000  Level Moncton Center
Tue 01:15:49 AM 54.3833 -56.3500 38° Northeast 500 575 33,000  Level Gander Center
Tue 01:16:49 AM 54.4667 -56.1667 52° Northeast 490 564 33,000  Level Gander Center
Tue 01:17:49 AM 54.5500 -55.9833 52° Northeast 500 575 33,000  Level Gander Center
Tue 01:18:49 AM 54.6333 -55.8000 52° Northeast 490 564 33,000  Level Gander Center
Tue 01:19:49 AM 54.7167 -55.5833 56° Northeast 500 575 33,000  Level Gander Center
Tue 01:20:49 AM 54.8167 -55.4000 47° Northeast 510 587 33,000  Level Gander Center
Tue 01:21:49 AM 54.9000 -55.2000 54° Northeast 500 575 33,000  Level Gander Center
Tue 01:22:19 AM 54.9333 -55.1167 55° Northeast 500 575 33,000  Level Moncton Center
Tue 01:24:00 AM 55.0732 -55.0046 25° Northeast  Level Estimated
Tue 01:30:49 AM 55.6500 -53.4667 26° Northeast 490 564 33,000  Level Gander Center
Tue 01:31:00 AM 55.8987 -54.3255 25° Northeast  Level Estimated
Tue 01:32:00 AM 56.0163 -54.2261 25° Northeast  Level Estimated
Tue 01:32:00 AM 55.7880 -53.3453 26° Northeast  Level Estimated
Tue 01:33:00 AM 56.1339 -54.1261 25° Northeast  Level Estimated
Tue 01:34:00 AM 56.2513 -54.0255 25° Northeast  Level Estimated
Tue 01:35:00 AM 56.3687 -53.9243 26° Northeast  Level Estimated
Tue 01:36:00 AM 56.4860 -53.8225 26° Northeast  Level Estimated
Tue 01:39:00 AM 56.6016 -52.6097 26° Northeast  Level Estimated
Tue 01:40:00 AM 56.7174 -52.5021 27° Northeast  Level Estimated
Tue 01:41:00 AM 56.8332 -52.3937 27° Northeast  Level Estimated
Tue 01:42:00 AM 56.9489 -52.2847 27° Northeast  Level Estimated
Tue 01:43:00 AM 57.0645 -52.1750 27° Northeast  Level Estimated
Tue 01:44:00 AM 57.1800 -52.0647 27° Northeast  Level Estimated
Tue 01:45:00 AM 57.2954 -51.9536 27° Northeast  Level Estimated
Tue 01:46:00 AM 57.4107 -51.8419 28° Northeast  Level Estimated
Tue 01:47:00 AM 57.5258 -51.7294 28° Northeast  Level Estimated
Tue 01:48:00 AM 57.6409 -51.6162 28° Northeast  Level Estimated
Tue 01:49:00 AM 57.7559 -51.5023 28° Northeast  Level Estimated
Tue 01:50:00 AM 57.8708 -51.3877 28° Northeast  Level Estimated
Tue 01:50:48 AM 57.1833 -49.2000 29° Northeast 510 587 33,000  Level Gander Center
Tue 01:51:00 AM 57.9856 -51.2723 28° Northeast  Level Estimated
Tue 01:51:48 AM 57.2333 -48.9667 68° East 510 587 33,000  Level Gander Center
Tue 01:52:00 AM 58.1003 -51.1562 28° Northeast  Level Estimated
Tue 01:52:48 AM 57.2833 -48.7333 68° East 510 587 33,000  Level Gander Center
Tue 01:53:00 AM 58.2149 -51.0394 28° Northeast  Level Estimated
Tue 01:53:48 AM 57.3500 -48.5000 62° Northeast 510 587 33,000  Level Gander Center
Tue 01:54:00 AM 58.3293 -50.9217 28° Northeast  Level Estimated
Tue 01:54:48 AM 57.4000 -48.2500 70° East 500 575 33,000  Level Gander Center
Tue 01:55:00 AM 58.4437 -50.8034 28° Northeast  Level Estimated
Tue 01:55:48 AM 57.4667 -48.0167 62° Northeast 500 575 33,000  Level Gander Center
Tue 01:56:00 AM 58.5579 -50.6842 29° Northeast  Level Estimated
Tue 01:56:48 AM 57.5000 -47.7833 75° East 510 587 33,000  Level Gander Center
Tue 01:57:48 AM 57.5667 -47.5333 63° Northeast 510 587 33,000  Level Gander Center
Tue 01:58:48 AM 57.6167 -47.3000 68° East 510 587 33,000  Level Gander Center
Tue 01:59:48 AM 57.6833 -47.0500 63° Northeast 510 587 33,000  Level Gander Center
Tue 02:00:48 AM 57.7167 -46.8167 75° East 510 587 33,000  Level Gander Center
Tue 02:01:48 AM 57.7833 -46.5333 66° East 520 598 33,000  Level Gander Center
Tue 02:02:48 AM 57.8333 -46.2833 69° East 510 587 33,000  Level Gander Center
Tue 02:03:48 AM 57.8833 -46.0500 68° East 510 587 33,000  Level Gander Center
Tue 02:04:48 AM 57.9333 -45.8000 69° East 510 587 33,000  Level Gander Center
Tue 02:05:48 AM 57.9833 -45.5500 69° East 510 587 33,000  Level Gander Center
Tue 02:06:48 AM 58.0333 -45.3000 69° East 520 598 33,000  Level Gander Center
Tue 02:07:48 AM 58.1000 -45.0667 62° Northeast 520 598 33,000  Level Gander Center
Tue 02:08:48 AM 58.1500 -44.8167 69° East 520 598 33,000  Level Gander Center
Tue 02:09:48 AM 58.2000 -44.5333 71° East 520 598 33,000  Level Gander Center
Tue 02:10:48 AM 58.2500 -44.2833 69° East 520 598 33,000  Level Gander Center
Tue 02:11:48 AM 58.2833 -44.0333 76° East 520 598 33,000  Level Gander Center
Tue 02:12:48 AM 58.3333 -43.7833 69° East 520 598 33,000  Level Gander Center
Tue 02:13:48 AM 58.3833 -43.5000 71° East 520 598 33,000  Level Gander Center
Tue 02:14:48 AM 58.4333 -43.2500 69° East 520 598 33,000  Level Gander Center
Tue 02:15:48 AM 58.4833 -42.9833 70° East 530 610 33,000  Level Gander Center
Tue 02:16:48 AM 58.5333 -42.7333 69° East 530 610 33,000  Level Gander Center
Tue 02:17:48 AM 58.5833 -42.4500 71° East 530 610 33,000  Level Gander Center
Tue 02:18:48 AM 58.6333 -42.1833 70° East 530 610 33,000  Level Gander Center
Tue 02:19:48 AM 58.6667 -41.9333 76° East 530 610 33,000  Level Gander Center
Tue 02:20:48 AM 58.7167 -41.6500 71° East 530 610 33,000  Level Gander Center
Tue 02:21:48 AM 58.7667 -41.3833 70° East 540 621 33,000  Level Gander Center
Tue 02:22:48 AM 58.8000 -41.1000 77° East 540 621 33,000  Level Gander Center
Tue 02:23:48 AM 58.8500 -40.8333 70° East 540 621 33,000  Level Gander Center
Tue 02:24:48 AM 58.8833 -40.5500 77° East 550 633 33,000  Level Gander Center
Tue 02:25:48 AM 58.9333 -40.2500 72° East 550 633 33,000  Level Gander Center
Tue 02:26:48 AM 58.9667 -40.0000 75° East 560 644 33,000  Level Gander Center
Tue 02:27:48 AM 59.0167 -39.7000 72° East 560 644 33,000  Level Gander Center
Tue 02:28:48 AM 59.0500 -39.4167 77° East 560 644 33,000  Level Gander Center
Tue 02:29:48 AM 59.0833 -39.1167 78° East 560 644 33,000  Level Gander Center
Tue 02:30:48 AM 59.1333 -38.8167 72° East 560 644 33,000  Level Gander Center
Tue 02:31:48 AM 59.1833 -38.5167 72° East 570 656 33,000  Level Gander Center
Tue 02:32:48 AM 59.2167 -38.2333 77° East 570 656 33,000  Level Gander Center
Tue 02:33:48 AM 59.2500 -37.9333 78° East 570 656 33,000  Level Gander Center
Tue 02:34:48 AM 59.2833 -37.6333 78° East 580 667 33,000  Level Gander Center
Tue 02:35:48 AM 59.3333 -37.3333 72° East 580 667 33,000  Level Gander Center
Tue 02:36:48 AM 59.3667 -37.0333 78° East 580 667 33,000  Level Gander Center
Tue 02:37:48 AM 59.3833 -36.7333 84° East 580 667 33,000  Level Gander Center
Tue 02:38:48 AM 59.4167 -36.4333 78° East 590 679 33,000  Level Gander Center
Tue 02:39:48 AM 59.4667 -36.1167 73° East 590 679 33,000  Level Gander Center
Tue 02:40:48 AM 59.4833 -35.8000 84° East 590 679 33,000  Level Gander Center
Tue 02:41:48 AM 59.5333 -35.4833 73° East 600 690 33,000  Level Gander Center
Tue 02:42:48 AM 59.5667 -35.1833 78° East 590 679 33,000  Level Gander Center
Tue 02:43:48 AM 59.5833 -34.8500 84° East 600 690 33,000  Level Gander Center
Tue 02:45:00 AM 59.6938 -34.6317 45° Northeast  Level Estimated
Tue 02:52:00 AM 60.3308 -33.3294 45° Northeast  Level Estimated
Tue 02:53:00 AM 60.4207 -33.1392 46° Northeast  Level Estimated
Tue 02:54:00 AM 60.5104 -32.9479 46° Northeast  Level Estimated
Tue 02:55:00 AM 60.5998 -32.7556 47° Northeast  Level Estimated
Tue 02:56:00 AM 60.6889 -32.5623 47° Northeast  Level Estimated
Tue 02:57:00 AM 60.7777 -32.3678 47° Northeast  Level Estimated
Tue 02:58:00 AM 60.8663 -32.1723 47° Northeast  Level Estimated
Tue 02:59:00 AM 60.9546 -31.9757 47° Northeast  Level Estimated
Tue 03:00:00 AM 61.0425 -31.7780 47° Northeast  Level Estimated
Tue 03:01:00 AM 61.1302 -31.5792 48° Northeast  Level Estimated
Tue 03:02:00 AM 61.2176 -31.3793 48° Northeast  Level Estimated
Tue 03:03:00 AM 61.3047 -31.1783 48° Northeast  Level Estimated
Tue 03:04:00 AM 61.3915 -30.9762 48° Northeast  Level Estimated
Tue 03:05:00 AM 61.4780 -30.7729 48° Northeast  Level Estimated
Tue 03:06:00 AM 61.5642 -30.5685 48° Northeast  Level Estimated
Tue 03:07:00 AM 61.6501 -30.3630 49° Northeast  Level Estimated
Tue 03:08:00 AM 61.7357 -30.1563 49° Northeast  Level Estimated
Tue 03:09:00 AM 61.8209 -29.9485 49° Northeast  Level Estimated
Tue 03:10:00 AM 61.9059 -29.7396 49° Northeast  Level Estimated
Tue 03:11:00 AM 61.9905 -29.5294 49° Northeast  Level Estimated
Tue 03:12:00 AM 62.0748 -29.3181 50° Northeast  Level Estimated
Tue 03:13:00 AM 62.1588 -29.1057 50° Northeast  Level Estimated
Tue 03:14:00 AM 62.2425 -28.8920 50° Northeast  Level Estimated
Tue 03:15:00 AM 62.3258 -28.6772 50° Northeast  Level Estimated
Tue 03:16:00 AM 62.4088 -28.4611 50° Northeast  Level Estimated
Tue 03:17:00 AM 62.4915 -28.2439 50° Northeast  Level Estimated
Tue 03:18:00 AM 62.5738 -28.0255 51° Northeast  Level Estimated
Tue 03:19:00 AM 62.6558 -27.8058 51° Northeast  Level Estimated
Tue 03:20:00 AM 62.7374 -27.5850 51° Northeast  Level Estimated
Tue 03:21:00 AM 62.8187 -27.3629 51° Northeast  Level Estimated
Tue 03:22:00 AM 62.8996 -27.1396 51° Northeast  Level Estimated
Tue 03:23:00 AM 62.9802 -26.9150 52° Northeast  Level Estimated
Tue 03:24:00 AM 63.0604 -26.6892 52° Northeast  Level Estimated
Tue 03:25:00 AM 63.1403 -26.4622 52° Northeast  Level Estimated
Tue 03:26:00 AM 63.2198 -26.2339 52° Northeast  Level Estimated
Tue 03:27:00 AM 63.2989 -26.0044 52° Northeast  Level Estimated
Tue 03:28:00 AM 63.3776 -25.7736 53° Northeast  Level Estimated
Tue 03:29:00 AM 63.4560 -25.5415 53° Northeast  Level Estimated
Tue 03:30:00 AM 63.5340 -25.3082 53° Northeast  Level Estimated
Tue 03:31:00 AM 63.6116 -25.0736 53° Northeast  Level Estimated
Tue 03:32:00 AM 63.6889 -24.8377 53° Northeast  Level Estimated
Tue 03:33:00 AM 63.7657 -24.6005 54° Northeast  Level Estimated
Tue 03:34:00 AM 63.8422 -24.3621 54° Northeast  Level Estimated
Tue 03:35:00 AM 63.9183 -24.1223 54° Northeast  Level Estimated
Tue 03:36:00 AM 63.9939 -23.8812 54° Northeast  Level Estimated
Tue 03:37:00 AM 64.0692 -23.6388 55° Northeast  Level Estimated
Tue 03:38:00 AM 64.1440 -23.3952 55° Northeast  Level Estimated
Tue 03:39:00 AM 64.2185 -23.1502 55° Northeast  Level Estimated
Tue 03:40:00 AM 64.2925 -22.9039 55° Northeast  Level Estimated
Tue 03:41:00 AM 64.3661 -22.6562 55° Northeast  Level Estimated
Tue 03:42:00 AM 64.4393 -22.4073 56° Northeast  Level Estimated
Tue 03:43:00 AM 64.5121 -22.1570 56° Northeast  Level Estimated
Tue 03:44:00 AM 64.5845 -21.9054 56° Northeast  Level Estimated
Tue 03:45:00 AM 64.6564 -21.6524 56° Northeast  Level Estimated
Tue 03:46:00 AM 64.7279 -21.3981 57° Northeast  Level Estimated
Tue 03:47:00 AM 64.7989 -21.1425 57° Northeast  Level Estimated
Tue 03:48:00 AM 64.8695 -20.8855 57° Northeast  Level Estimated
Tue 03:49:00 AM 64.9397 -20.6271 57° Northeast  Level Estimated
Tue 03:50:00 AM 65.0094 -20.3675 57° Northeast  Level Estimated
Tue 03:51:00 AM 65.0786 -20.1064 58° Northeast  Level Estimated
Tue 03:52:00 AM 65.1474 -19.8440 58° Northeast  Level Estimated
Tue 03:53:00 AM 65.2158 -19.5802 58° Northeast  Level Estimated
Tue 03:54:00 AM 65.2837 -19.3151 58° Northeast  Level Estimated
Tue 03:55:00 AM 65.3511 -19.0486 59° Northeast  Level Estimated
Tue 03:56:00 AM 65.4180 -18.7808 59° Northeast  Level Estimated
Tue 03:57:00 AM 65.4845 -18.5116 59° Northeast  Level Estimated
Tue 03:58:00 AM 65.5504 -18.2410 59° Northeast  Level Estimated
Tue 03:59:00 AM 65.6159 -17.9690 60° Northeast  Level Estimated
Tue 04:00:00 AM 65.6809 -17.6957 60° Northeast  Level Estimated
Tue 04:01:00 AM 65.7454 -17.4210 60° Northeast  Level Estimated
Tue 04:02:00 AM 65.8095 -17.1449 60° Northeast  Level Estimated
Tue 04:03:00 AM 65.8730 -16.8675 61° Northeast  Level Estimated
Tue 04:04:00 AM 65.9360 -16.5886 61° Northeast  Level Estimated
Tue 04:05:00 AM 65.9985 -16.3085 61° Northeast  Level Estimated
Tue 04:06:00 AM 66.0605 -16.0269 61° Northeast  Level Estimated
Tue 04:07:00 AM 66.1220 -15.7440 62° Northeast  Level Estimated
Tue 04:08:00 AM 66.1829 -15.4597 62° Northeast  Level Estimated
Tue 04:09:00 AM 66.2434 -15.1741 62° Northeast  Level Estimated
Tue 04:10:00 AM 66.3033 -14.8870 62° Northeast  Level Estimated
Tue 04:11:00 AM 66.3627 -14.5986 63° Northeast  Level Estimated
Tue 04:11:30 AM 61.0640 -7.7720 63° Northeast 535 616 33,000  Level FlightAware ADS-B
Tue 04:12:00 AM 66.4215 -14.3089 63° Northeast  Level Estimated
Tue 04:12:09 AM 61.0680 -7.6020 87° East 535 616 33,000  Level FlightAware ADS-B
Tue 04:12:46 AM 61.0720 -7.3500 88° East 536 617 33,000  Level FlightAware ADS-B
Tue 04:13:38 AM 61.0780 -7.1230 87° East 536 617 33,000  Level FlightAware ADS-B
Tue 04:14:15 AM 61.0820 -6.9620 87° East 536 617 33,000  Level FlightAware ADS-B
Tue 04:14:55 AM 61.0820 -6.7090 90° East 535 616 33,000  Level FlightAware ADS-B
Tue 04:15:41 AM 61.0850 -6.4530 88° East 534 615 33,000  Level FlightAware ADS-B
Tue 04:16:17 AM 61.0870 -6.2670 89° East 532 612 33,000 320 Level FlightAware ADS-B
Tue 04:16:56 AM 61.0880 -6.0690 89° East 536 617 33,400 761 Climbing FlightAware ADS-B
Tue 04:17:28 AM 61.0890 -5.9080 89° East 538 619 33,900 1,014 Climbing FlightAware ADS-B
Tue 04:18:07 AM 61.0910 -5.7120 89° East 538 619 34,600 649 Climbing FlightAware ADS-B
Tue 04:18:42 AM 61.0920 -5.5590 89° East 538 619 34,700 338 Climbing FlightAware ADS-B
Tue 04:19:18 AM 61.0920 -5.4410 90° East 534 615 35,000 162 Climbing FlightAware ADS-B
Tue 04:20:33 AM 61.0920 -4.9640 90° East 535 616 35,000  Level FlightAware ADS-B
Tue 04:21:12 AM 61.0920 -4.7650 90° East 533 613 35,000  Level FlightAware ADS-B
Tue 04:21:42 AM 61.0920 -4.6120 90° East 531 611 35,000  Level FlightAware ADS-B
Tue 04:22:25 AM 61.0910 -4.3950 90° East 531 611 35,000  Level FlightAware ADS-B
Tue 04:22:58 AM 61.0900 -4.2270 91° East 533 613 35,000  Level FlightAware ADS-B
Tue 04:24:01 AM 61.0880 -3.9090 91° East 531 611 35,000  Level FlightAware ADS-B
Tue 04:24:31 AM 61.0870 -3.7590 91° East 531 611 35,000  Level FlightAware ADS-B
Tue 04:25:03 AM 61.0850 -3.5940 91° East 532 612 35,000  Level FlightAware ADS-B
Tue 04:25:34 AM 61.0830 -3.4380 91° East 533 613 35,000  Level FlightAware ADS-B
Tue 04:26:35 AM 61.0800 -3.1320 91° East 533 613 35,000  Level FlightAware ADS-B
Tue 04:27:39 AM 61.0750 -2.8010 92° East 531 611 35,000  Level FlightAware ADS-B
Tue 04:28:16 AM 61.0710 -2.6170 92° East 529 609 35,000  Level FlightAware ADS-B
Tue 04:29:19 AM 61.0650 -2.3010 92° East 528 608 35,000  Level FlightAware ADS-B
Tue 04:29:59 AM 61.0610 -2.1060 92° East 528 608 35,000  Level FlightAware ADS-B
Tue 04:30:44 AM 61.0560 -1.8730 92° East 527 606 35,000  Level FlightAware ADS-B
Tue 04:31:27 AM 61.0510 -1.6680 93° East 525 604 35,000  Level FlightAware ADS-B
Tue 04:32:02 AM 61.0470 -1.4910 93° East 527 606 35,000  Level FlightAware ADS-B
Tue 04:32:36 AM 61.0420 -1.3140 93° East 527 606 35,000  Level FlightAware ADS-B
Tue 04:33:11 AM 61.0370 -1.1400 93° East 525 604 35,000  Level FlightAware ADS-B
Tue 04:33:49 AM 61.0320 -0.9640 93° East 528 608 35,000  Level FlightAware ADS-B
Tue 04:34:45 AM 61.0230 -0.6720 94° East 531 611 35,000  Level FlightAware ADS-B
Tue 04:35:23 AM 61.0170 -0.4750 94° East 534 615 35,000  Level FlightAware ADS-B
Tue 04:35:56 AM 61.0110 -0.3140 94° East 531 611 35,000  Level FlightAware ADS-B
Tue 04:36:32 AM 61.0050 -0.1260 94° East 533 613 35,000  Level FlightAware ADS-B
Tue 04:37:14 AM 60.9910 0.0810 98° East 530 610 35,000  Level FlightAware ADS-B
Tue 04:38:09 AM 60.9610 0.3490 103° East 528 608 35,000  Level FlightAware ADS-B
Tue 04:38:42 AM 60.9460 0.5160 100° East 529 609 35,000  Level FlightAware ADS-B
Tue 04:39:17 AM 60.9430 0.6890 92° East 531 611 35,000  Level FlightAware ADS-B
Tue 04:39:55 AM 60.9390 0.8780 92° East 530 610 35,000  Level FlightAware ADS-B
Tue 04:40:59 AM 60.9320 1.2020 92° East 523 602 35,000  Level FlightAware ADS-B
Tue 04:41:40 AM 60.9270 1.4020 93° East 527 606 35,000  Level FlightAware ADS-B
Tue 04:42:39 AM 60.9200 1.6970 93° East 528 608 35,000  Level FlightAware ADS-B
Tue 04:43:12 AM 60.9150 1.8590 94° East 527 606 35,000  Level FlightAware ADS-B
Tue 04:43:57 AM 60.9090 2.0780 93° East 528 608 35,000  Level FlightAware ADS-B
Tue 04:45:06 AM 60.8980 2.4360 93° East 535 616 35,000  Level FlightAware ADS-B
Tue 04:45:46 AM 60.8910 2.6300 94° East 534 615 35,000  Level FlightAware ADS-B
Tue 04:46:41 AM 60.8810 2.9130 94° East 530 610 35,000  Level FlightAware ADS-B
Tue 04:47:33 AM 60.8720 3.1750 94° East 530 610 35,000  Level FlightAware ADS-B
Tue 04:48:14 AM 60.8640 3.3800 94° East 530 610 35,000  Level FlightAware ADS-B
Tue 04:48:49 AM 60.8570 3.5560 95° East 531 611 35,000  Level FlightAware ADS-B
Tue 04:49:22 AM 60.8500 3.7170 95° East 532 612 35,000  Level FlightAware ADS-B
Tue 04:49:58 AM 60.8420 3.9020 95° East 536 617 35,000  Level FlightAware ADS-B
Tue 04:50:33 AM 60.8350 4.0760 95° East 536 617 35,000  Level FlightAware ADS-B
Tue 04:51:10 AM 60.8260 4.2620 96° East 535 616 35,000  Level FlightAware ADS-B
Tue 04:51:42 AM 60.8190 4.4260 95° East 535 616 35,000  Level FlightAware ADS-B
Tue 04:52:18 AM 60.8100 4.5990 96° East 531 611 35,000  Level FlightAware ADS-B
Tue 04:53:00 AM 60.8000 4.8130 95° East 531 611 35,000  Level FlightAware ADS-B
Tue 04:53:39 AM 60.7900 5.0070 96° East 530 610 35,000  Level FlightAware ADS-B
Tue 04:54:21 AM 60.7790 5.2190 96° East 533 613 35,000  Level FlightAware ADS-B
Tue 04:54:49 AM 60.7710 5.3580 97° East 533 613 35,000  Level FlightAware ADS-B
Tue 04:55:29 AM 60.7610 5.5490 96° East 534 615 35,000  Level FlightAware ADS-B
Tue 04:56:07 AM 60.7490 5.7440 97° East 531 611 35,000  Level FlightAware ADS-B
Tue 04:56:43 AM 60.7388 5.9276 96° East 531 611 35,000  Level FlightAware ADS-B
Tue 04:57:13 AM 60.7299 6.0758 97° East 532 612 35,000  Level FlightAware ADS-B
Tue 04:57:48 AM 60.7194 6.2480 97° East 540 621 35,000  Level FlightAware ADS-B
Tue 04:58:19 AM 60.7097 6.4063 97° East 545 627 35,000  Level FlightAware ADS-B
Tue 04:58:59 AM 60.6969 6.6074 97° East 538 619 35,000  Level FlightAware ADS-B
Tue 04:59:35 AM 60.6852 6.7891 97° East 540 621 35,000  Level FlightAware ADS-B
Tue 05:00:09 AM 60.6736 6.9619 98° East 543 625 35,000  Level FlightAware ADS-B
Tue 05:00:39 AM 60.6636 7.1116 98° East 535 616 35,000  Level FlightAware ADS-B
Tue 05:01:17 AM 60.6503 7.3046 98° East 535 616 35,000  Level FlightAware ADS-B
Tue 05:01:48 AM 60.6395 7.4576 98° East 536 617 35,000  Level FlightAware ADS-B
Tue 05:02:27 AM 60.6257 7.6505 98° East 539 620 35,000  Level FlightAware ADS-B
Tue 05:03:22 AM 60.6050 7.9270 99° East 543 625 35,000  Level FlightAware ADS-B
Tue 05:04:10 AM 60.5870 8.1670 99° East 541 623 35,000  Level FlightAware ADS-B
Tue 05:04:50 AM 60.5720 8.3640 99° East 543 625 35,000  Level FlightAware ADS-B
Tue 05:05:22 AM 60.5590 8.5290 99° East 547 629 35,000  Level FlightAware ADS-B
Tue 05:06:10 AM 60.5400 8.7720 99° East 546 628 35,000  Level FlightAware ADS-B
Tue 05:06:37 AM 60.5280 8.9100 100° East 548 631 35,000  Level FlightAware ADS-B
Tue 05:07:10 AM 60.5140 9.0780 100° East 549 632 35,000  Level FlightAware ADS-B
Tue 05:07:43 AM 60.5010 9.2390 99° East 553 636 35,000  Level FlightAware ADS-B
Tue 05:08:10 AM 60.4890 9.3770 100° East 556 640 35,000  Level FlightAware ADS-B
Tue 05:08:54 AM 60.4700 9.5960 100° East 555 639 35,000  Level FlightAware ADS-B
Tue 05:09:37 AM 60.4500 9.8210 100° East 558 642 35,000  Level FlightAware ADS-B
Tue 05:10:21 AM 60.4300 10.0430 100° East 557 641 35,000  Level FlightAware ADS-B
Tue 05:10:57 AM 60.4130 10.2270 101° East 556 640 35,000  Level FlightAware ADS-B
Tue 05:11:43 AM 60.3910 10.4670 100° East 558 642 35,000  Level FlightAware ADS-B
Tue 05:12:18 AM 60.3730 10.6490 101° East 558 642 35,000  Level FlightAware ADS-B
Tue 05:12:58 AM 60.3540 10.8470 101° East 559 643 35,000  Level FlightAware ADS-B
Tue 05:13:38 AM 60.3340 11.0550 101° East 552 635 35,000  Level FlightAware ADS-B
Tue 05:14:13 AM 60.3160 11.2320 102° East 552 635 35,000  Level FlightAware ADS-B
Tue 05:14:43 AM 60.3010 11.3810 101° East 553 636 35,000  Level FlightAware ADS-B
Tue 05:15:25 AM 60.2790 11.5880 102° East 544 626 35,000  Level FlightAware ADS-B
Tue 05:15:54 AM 60.2660 11.7220 101° East 542 624 35,000  Level FlightAware ADS-B
Tue 05:16:30 AM 60.2460 11.9060 102° East 541 623 35,000  Level FlightAware ADS-B
Tue 05:17:05 AM 60.2280 12.0720 102° East 540 621 35,000  Level FlightAware ADS-B
Tue 05:17:37 AM 60.2110 12.2350 102° East 540 621 35,000  Level FlightAware ADS-B
Tue 05:18:06 AM 60.1960 12.3710 102° East 539 620 35,000  Level FlightAware ADS-B
Tue 05:18:38 AM 60.1770 12.5340 103° East 539 620 35,000  Level FlightAware ADS-B
Tue 05:19:20 AM 60.1540 12.7310 103° East 542 624 35,000  Level FlightAware ADS-B
Tue 05:19:56 AM 60.1330 12.9140 103° East 539 620 35,000  Level FlightAware ADS-B
Tue 05:20:35 AM 60.1110 13.0960 104° East 539 620 35,000  Level FlightAware ADS-B
Tue 05:21:08 AM 60.0910 13.2640 103° East 543 625 35,000  Level FlightAware ADS-B
Tue 05:22:06 AM 60.0560 13.5490 104° East 542 624 35,000  Level FlightAware ADS-B
Tue 05:22:41 AM 60.0360 13.7100 104° East 545 627 35,000  Level FlightAware ADS-B
Tue 05:23:18 AM 60.0130 13.8970 104° East 550 633 35,000  Level FlightAware ADS-B
Tue 05:23:51 AM 59.9930 14.0590 104° East 545 627 35,000  Level FlightAware ADS-B
Tue 05:24:27 AM 59.9710 14.2320 104° East 539 620 35,000  Level FlightAware ADS-B
Tue 05:25:04 AM 59.9480 14.4070 105° East 535 616 35,000  Level FlightAware ADS-B
Tue 05:25:42 AM 59.9250 14.5820 105° East 536 617 35,000  Level FlightAware ADS-B
Tue 05:26:20 AM 59.9000 14.7680 105° East 540 621 35,000  Level FlightAware ADS-B
Tue 05:26:55 AM 59.8780 14.9320 105° East 544 626 35,000  Level FlightAware ADS-B
Tue 05:27:31 AM 59.8540 15.1080 105° East 543 625 35,000  Level FlightAware ADS-B
Tue 05:28:06 AM 59.8310 15.2790 105° East 544 626 35,000  Level FlightAware ADS-B
Tue 05:28:49 AM 59.8020 15.4890 105° East 543 625 35,000  Level FlightAware ADS-B
Tue 05:29:28 AM 59.7760 15.6750 105° East 542 624 35,000  Level FlightAware ADS-B
Tue 05:30:17 AM 59.7440 15.8980 106° East 546 628 35,000  Level FlightAware ADS-B
Tue 05:30:48 AM 59.7220 16.0510 106° East 549 632 35,000  Level FlightAware ADS-B
Tue 05:31:58 AM 59.6730 16.3840 106° East 549 632 35,000  Level FlightAware ADS-B
Tue 05:32:28 AM 59.6500 16.5400 106° East 549 632 35,000  Level FlightAware ADS-B
Tue 05:33:09 AM 59.6210 16.7310 107° East 550 633 35,000  Level FlightAware ADS-B
Tue 05:33:46 AM 59.5940 16.9090 107° East 549 632 35,000  Level FlightAware ADS-B
Tue 05:34:27 AM 59.5640 17.1090 106° East 549 632 35,000  Level FlightAware ADS-B
Tue 05:34:58 AM 59.5420 17.2480 107° East 547 629 35,000  Level FlightAware ADS-B
Tue 05:35:43 AM 59.5080 17.4680 107° East 545 627 35,000  Level FlightAware ADS-B
Tue 05:36:31 AM 59.4720 17.6960 107° East 546 628 35,000  Level FlightAware ADS-B
Tue 05:37:12 AM 59.4410 17.8880 108° East 546 628 35,000  Level FlightAware ADS-B
Tue 05:37:40 AM 59.4200 18.0200 107° East 545 627 35,000  Level FlightAware ADS-B
Tue 05:38:15 AM 59.3930 18.1860 108° East 545 627 35,000  Level FlightAware ADS-B
Tue 05:38:52 AM 59.3650 18.3550 108° East 542 624 35,000  Level FlightAware ADS-B
Tue 05:39:26 AM 59.3380 18.5160 108° East 542 624 35,000  Level FlightAware ADS-B
Tue 05:40:06 AM 59.3070 18.6990 108° East 543 625 35,000  Level FlightAware ADS-B
Tue 05:40:39 AM 59.2800 18.8610 108° East 542 624 35,000  Level FlightAware ADS-B
Tue 05:41:27 AM 59.2430 19.0760 109° East 540 621 35,000  Level FlightAware ADS-B
Tue 05:42:03 AM 59.2130 19.2470 109° East 539 620 35,000  Level FlightAware ADS-B
Tue 05:43:08 AM 59.1610 19.5430 109° East 537 618 35,000  Level FlightAware ADS-B
Tue 05:43:43 AM 59.1330 19.7050 109° East 536 617 35,000  Level FlightAware ADS-B
Tue 05:44:24 AM 59.1010 19.8830 109° East 537 618 35,000  Level FlightAware ADS-B
Tue 05:44:59 AM 59.0710 20.0480 109° East 537 618 35,000  Level FlightAware ADS-B
Tue 05:45:27 AM 59.0470 20.1770 110° East 534 615 35,000  Level FlightAware ADS-B
Tue 05:46:11 AM 59.0110 20.3730 110° East 533 613 35,000  Level FlightAware ADS-B
Tue 05:46:52 AM 58.9780 20.5530 110° East 532 612 35,000  Level FlightAware ADS-B
Tue 05:47:32 AM 58.9440 20.7340 110° East 533 613 35,000  Level FlightAware ADS-B
Tue 05:48:06 AM 58.9140 20.8910 110° East 535 616 35,000  Level FlightAware ADS-B
Tue 05:48:43 AM 58.8890 21.0600 106° East 538 619 35,000  Level FlightAware ADS-B
Tue 05:49:29 AM 58.8600 21.2750 105° East 538 619 35,000  Level FlightAware ADS-B
Tue 05:50:08 AM 58.8360 21.4560 104° East 541 623 35,000  Level FlightAware ADS-B
Tue 05:51:01 AM 58.8030 21.6930 105° East 542 624 35,000  Level FlightAware ADS-B
Tue 05:51:57 AM 58.7660 21.9560 105° East 546 628 35,000  Level FlightAware ADS-B
Tue 05:52:37 AM 58.7390 22.1450 105° East 546 628 35,000  Level FlightAware ADS-B
Tue 05:53:13 AM 58.7150 22.3130 105° East 546 628 35,000  Level FlightAware ADS-B
Tue 05:54:11 AM 58.6750 22.5850 106° East 545 627 35,000  Level FlightAware ADS-B
Tue 05:54:51 AM 58.6480 22.7700 106° East 544 626 35,000  Level FlightAware ADS-B
Tue 05:55:29 AM 58.6220 22.9450 106° East 544 626 35,000  Level FlightAware ADS-B
Tue 05:56:01 AM 58.6000 23.0940 106° East 544 626 35,000  Level FlightAware ADS-B
Tue 05:56:45 AM 58.5680 23.3000 107° East 543 625 35,000  Level FlightAware ADS-B
Tue 05:57:29 AM 58.5370 23.4990 107° East 542 624 35,000  Level FlightAware ADS-B
Tue 05:58:37 AM 58.4890 23.8080 106° East 533 613 35,000  Level FlightAware ADS-B
Tue 05:59:13 AM 58.4640 23.9680 107° East 532 612 35,000  Level FlightAware ADS-B
Tue 05:59:45 AM 58.4400 24.1130 107° East 530 610 35,000  Level FlightAware ADS-B
Tue 06:00:29 AM 58.4090 24.3070 107° East 529 609 35,000  Level FlightAware ADS-B
Tue 06:01:25 AM 58.3670 24.5610 107° East 534 615 35,000  Level FlightAware ADS-B
Tue 06:02:10 AM 58.3340 24.7600 107° East 536 617 35,000  Level FlightAware ADS-B
Tue 06:02:42 AM 58.3100 24.9040 108° East 536 617 35,000  Level FlightAware ADS-B
Tue 06:03:22 AM 58.2800 25.0840 108° East 536 617 35,000  Level FlightAware ADS-B
Tue 06:03:58 AM 58.2530 25.2440 108° East 536 617 35,000  Level FlightAware ADS-B
Tue 06:04:30 AM 58.2280 25.3860 108° East 535 616 35,000  Level FlightAware ADS-B
Tue 06:05:10 AM 58.1980 25.5620 108° East 535 616 35,000  Level FlightAware ADS-B
Tue 06:05:48 AM 58.1670 25.7340 109° East 536 617 35,000  Level FlightAware ADS-B
Tue 06:06:24 AM 58.1400 25.8910 108° East 536 617 35,000  Level FlightAware ADS-B
Tue 06:07:04 AM 58.1090 26.0630 109° East 535 616 35,000  Level FlightAware ADS-B
Tue 06:07:32 AM 58.0860 26.1930 108° East 533 613 35,000  Level FlightAware ADS-B
Tue 06:08:19 AM 58.0490 26.3960 109° East 534 615 35,000  Level FlightAware ADS-B
Tue 06:09:23 AM 57.9970 26.6800 109° East 533 613 35,000  Level FlightAware ADS-B
Tue 06:09:52 AM 57.9730 26.8050 110° East 532 612 35,000  Level FlightAware ADS-B
Tue 06:10:37 AM 57.9370 27.0000 109° East 533 613 35,000  Level FlightAware ADS-B
Tue 06:11:16 AM 57.9040 27.1730 110° East 532 612 35,000  Level FlightAware ADS-B
Tue 06:11:38 AM 57.8860 27.2660 110° East 533 613 35,000  Level FlightAware ADS-B
Tue 06:12:29 AM 57.8460 27.4700 110° East 533 613 35,000  Level FlightAware ADS-B
Tue 06:12:54 AM 57.8160 27.5780 118° Southeast 533 613 35,000  Level FlightAware ADS-B
Tue 06:13:29 AM 57.7760 27.7070 120° Southeast 532 612 35,000  Level FlightAware ADS-B
Tue 06:14:36 AM 57.6870 27.9870 121° Southeast 530 610 35,000  Level FlightAware ADS-B
Tue 06:15:05 AM 57.6490 28.1000 122° Southeast 531 611 35,000  Level FlightAware ADS-B
Tue 06:16:19 AM 57.5640 28.3480 123° Southeast 531 611 35,000  Level FlightAware ADS-B
Tue 06:16:52 AM 57.5320 28.4440 122° Southeast 530 610 35,000  Level FlightAware ADS-B
Tue 06:17:41 AM 57.4570 28.6630 122° Southeast 530 610 35,000  Level FlightAware ADS-B
Tue 06:18:21 AM 57.4030 28.8190 123° Southeast 528 608 35,000  Level FlightAware ADS-B
Tue 06:19:26 AM 57.3050 29.1000 123° Southeast 527 606 35,000  Level FlightAware ADS-B
Tue 06:20:26 AM 57.2260 29.3250 123° Southeast 526 605 35,000  Level FlightAware ADS-B
Tue 06:20:56 AM 57.1870 29.4330 124° Southeast 525 604 35,000  Level FlightAware ADS-B
Tue 06:21:33 AM 57.1360 29.5780 123° Southeast 523 602 35,000  Level FlightAware ADS-B
Tue 06:22:02 AM 57.1000 29.6780 124° Southeast 521 600 35,000  Level FlightAware ADS-B
Tue 06:22:44 AM 57.0470 29.8250 123° Southeast 522 601 35,000  Level FlightAware ADS-B
Tue 06:23:14 AM 57.0080 29.9330 124° Southeast 522 601 35,000  Level FlightAware ADS-B
Tue 06:24:03 AM 57.0570 29.7970 304° West 522 601 35,000  Level FlightAware ADS-B
Tue 06:25:55 AM 56.7880 30.5300 124° Southeast 524 603 35,000  Level FlightAware ADS-B
Tue 06:26:05 AM 56.7750 30.5670 123° Southeast 524 603 35,000  Level FlightAware ADS-B
Tue 06:26:55 AM 56.7070 30.7390 126° Southeast 529 609 35,000  Level FlightAware ADS-B
Tue 06:27:40 AM 56.6350 30.8940 130° Southeast 526 605 35,000  Level FlightAware ADS-B
Tue 06:28:44 AM 56.5470 31.0920 129° Southeast 527 606 35,000  Level FlightAware ADS-B
Tue 06:29:20 AM 56.5000 31.1970 129° Southeast 527 606 35,000  Level FlightAware ADS-B
Tue 06:29:57 AM 56.4520 31.3050 129° Southeast 527 606 35,000  Level FlightAware ADS-B
Tue 06:30:15 AM 56.4230 31.4410 111° Southeast 517 595 35,000  Level FlightAware ADS-B
Tue 06:30:58 AM 56.3630 31.6100 123° Southeast 519 597 35,000  Level FlightAware ADS-B
Tue 06:31:26 AM 56.3290 31.7040 123° Southeast 519 597 35,000  Level FlightAware ADS-B
Tue 06:31:46 AM 56.3000 31.7840 123° Southeast 518 596 35,000  Level FlightAware ADS-B
Tue 06:32:50 AM 56.2190 32.0050 123° Southeast 512 589 35,000  Level FlightAware ADS-B
Tue 06:33:39 AM 56.1660 32.1540 123° Southeast 512 589 35,000  Level FlightAware ADS-B
Tue 06:34:18 AM 56.1030 32.3100 126° Southeast 505 581 35,000  Level FlightAware ADS-B
Tue 06:35:06 AM 56.0360 32.4820 125° Southeast 501 577 35,000  Level FlightAware ADS-B
Tue 06:35:34 AM 55.9990 32.5740 126° Southeast 501 577 35,000  Level FlightAware ADS-B
Tue 06:36:26 AM 55.9310 32.7460 125° Southeast 498 573 35,000  Level FlightAware ADS-B
Tue 06:37:02 AM 55.8820 32.8690 125° Southeast 497 572 35,000  Level FlightAware ADS-B
Tue 06:37:34 AM 55.8380 32.9720 127° Southeast 504 580 35,000  Level FlightAware ADS-B
Tue 06:38:10 AM 55.7870 33.0750 131° Southeast 507 583 35,000  Level FlightAware ADS-B
Tue 06:38:51 AM 55.7280 33.2020 129° Southeast 509 586 35,000  Level FlightAware ADS-B
Tue 06:39:31 AM 55.6610 33.3400 131° Southeast 507 583 35,000  Level FlightAware ADS-B
Tue 06:40:42 AM 55.5510 33.5660 131° Southeast 499 574 35,000  Level FlightAware ADS-B
Tue 06:41:12 AM 55.5070 33.6570 130° Southeast 497 572 35,000  Level FlightAware ADS-B
Tue 06:41:43 AM 55.4620 33.7470 131° Southeast 494 568 35,000  Level FlightAware ADS-B
Tue 06:42:28 AM 55.3940 33.8900 130° Southeast 491 565 35,000  Level FlightAware ADS-B
Tue 06:43:03 AM 55.3460 33.9910 130° Southeast 492 566 35,000  Level FlightAware ADS-B
Tue 06:43:38 AM 55.2960 34.0950 130° Southeast 492 566 35,000  Level FlightAware ADS-B
Tue 06:44:20 AM 55.2320 34.2270 130° Southeast 489 563 35,000  Level FlightAware ADS-B
Tue 06:44:54 AM 55.1810 34.3310 131° Southeast 496 571 35,000  Level FlightAware ADS-B
Tue 06:45:34 AM 55.1220 34.4530 130° Southeast 501 577 35,000  Level FlightAware ADS-B
Tue 06:45:59 AM 55.0840 34.5280 131° Southeast 496 571 35,000  Level FlightAware ADS-B
Tue 06:47:11 AM 54.9740 34.7450 131° Southeast 492 566 35,000  Level FlightAware ADS-B
Tue 06:47:31 AM 54.9450 34.8050 130° Southeast 491 565 35,000  Level FlightAware ADS-B
Tue 06:48:07 AM 54.8930 34.9110 130° Southeast 494 568 35,000  Level FlightAware ADS-B
Tue 06:48:39 AM 54.8520 35.0040 127° Southeast 490 564 35,000  Level FlightAware ADS-B
Tue 06:49:16 AM 54.8090 35.1310 120° Southeast 476 548 35,000  Level FlightAware ADS-B
Tue 06:49:43 AM 54.7840 35.2290 114° Southeast 468 539 35,000  Level FlightAware ADS-B
Tue 06:50:43 AM 54.7500 35.4400 106° East 463 533 35,000  Level FlightAware ADS-B
Tue 06:51:35 AM 54.7390 35.6340 96° East 461 531 35,000  Level FlightAware ADS-B
Tue 06:52:03 AM 54.7390 35.7330 90° East 459 528 35,000  Level FlightAware ADS-B
Tue 06:52:43 AM 54.7380 35.8830 91° East 457 526 35,000  Level FlightAware ADS-B
Tue 06:53:24 AM 54.7370 36.0280 91° East 458 527 35,000  Level FlightAware ADS-B
Tue 06:54:03 AM 54.7370 36.1700 90° East 460 529 35,000  Level FlightAware ADS-B
Tue 06:54:39 AM 54.7360 36.3070 91° East 463 533 35,000  Level FlightAware ADS-B
Tue 06:55:15 AM 54.7350 36.4400 91° East 462 532 35,000  Level FlightAware ADS-B
Tue 06:55:55 AM 54.7320 36.5860 92° East 464 534 35,000  Level FlightAware ADS-B
Tue 06:56:31 AM 54.7200 36.7070 100° East 468 539 35,000  Level FlightAware ADS-B
Tue 06:57:35 AM 54.6790 36.9420 107° East 475 547 35,000  Level FlightAware ADS-B
Tue 06:58:11 AM 54.6550 37.0760 107° East 475 547 35,000  Level FlightAware ADS-B
Tue 06:58:59 AM 54.6230 37.2490 108° East 471 542 35,000  Level FlightAware ADS-B
Tue 06:59:35 AM 54.5920 37.3770 113° Southeast 476 548 35,000  Level FlightAware ADS-B
Tue 07:00:11 AM 54.5570 37.4980 116° Southeast 477 549 35,000  Level FlightAware ADS-B
Tue 07:00:51 AM 54.5180 37.6350 116° Southeast 477 549 35,000  Level FlightAware ADS-B
Tue 07:01:47 AM 54.4660 37.8170 116° Southeast 478 550 35,000  Level FlightAware ADS-B
Tue 07:02:19 AM 54.4330 37.9330 116° Southeast 479 551 35,000  Level FlightAware ADS-B
Tue 07:03:23 AM 54.3710 38.1500 116° Southeast 476 548 35,000  Level FlightAware ADS-B
Tue 07:04:07 AM 54.3350 38.3010 112° Southeast 476 548 35,000  Level FlightAware ADS-B
Tue 07:04:43 AM 54.3140 38.4350 105° East 477 549 35,000  Level FlightAware ADS-B
Tue 07:05:31 AM 54.2880 38.6060 105° East 475 547 35,000  Level FlightAware ADS-B
Tue 07:06:03 AM 54.2690 38.7230 105° East 480 552 35,000  Level FlightAware ADS-B
Tue 07:06:31 AM 54.2530 38.8240 105° East 481 554 35,000  Level FlightAware ADS-B
Tue 07:07:07 AM 54.2310 38.9600 105° East 482 555 35,000  Level FlightAware ADS-B
Tue 07:07:35 AM 54.2170 39.0600 103° East 481 554 35,000  Level FlightAware ADS-B
Tue 07:08:15 AM 54.1960 39.2120 103° East 482 555 35,000  Level FlightAware ADS-B
Tue 07:08:49 AM 54.1830 39.3000 104° East 484 557 35,000  Level FlightAware ADS-B
Tue 07:09:29 AM 54.1610 39.4530 104° East 486 559 35,000  Level FlightAware ADS-B
Tue 07:10:35 AM 54.1200 39.7300 104° East 489 563 35,000  Level FlightAware ADS-B
Tue 07:10:57 AM 54.1080 39.8090 104° East 490 564 35,000  Level FlightAware ADS-B
Tue 07:11:38 AM 54.0890 39.9390 104° East 491 565 35,000  Level FlightAware ADS-B
Tue 07:12:39 AM 54.0500 40.1940 105° East 492 566 35,000  Level FlightAware ADS-B
Tue 07:13:15 AM 54.0290 40.3280 105° East 493 567 35,000  Level FlightAware ADS-B
Tue 07:13:51 AM 54.0090 40.4600 104° East 493 567 35,000  Level FlightAware ADS-B
Tue 07:14:27 AM 53.9870 40.5980 105° East 494 568 35,000  Level FlightAware ADS-B
Tue 07:15:08 AM 53.9640 40.7430 105° East 498 573 35,000  Level FlightAware ADS-B
Tue 07:15:58 AM 53.9330 40.9430 105° East 500 575 35,000  Level FlightAware ADS-B
Tue 07:16:30 AM 53.9140 41.0660 105° East 501 577 35,000  Level FlightAware ADS-B
Tue 07:17:13 AM 53.8890 41.2240 105° East 501 577 35,000  Level FlightAware ADS-B
Tue 07:17:42 AM 53.8710 41.3370 105° East 501 577 35,000  Level FlightAware ADS-B
Tue 07:18:17 AM 53.8500 41.4680 105° East 501 577 35,000  Level FlightAware ADS-B
Tue 07:18:49 AM 53.8300 41.5890 106° East 504 580 35,000  Level FlightAware ADS-B
Tue 07:19:32 AM 53.8030 41.7550 105° East 506 582 35,000  Level FlightAware ADS-B
Tue 07:20:14 AM 53.7770 41.9110 106° East 502 578 35,000  Level FlightAware ADS-B
Tue 07:20:42 AM 53.7600 42.0170 105° East 500 575 35,000  Level FlightAware ADS-B
Tue 07:21:14 AM 53.7400 42.1360 106° East 502 578 35,000  Level FlightAware ADS-B
Tue 07:21:54 AM 53.7140 42.2860 106° East 503 579 35,000  Level FlightAware ADS-B
Tue 07:22:31 AM 53.6910 42.4260 105° East 503 579 35,000  Level FlightAware ADS-B
Tue 07:23:05 AM 53.6690 42.5540 106° East 505 581 35,000  Level FlightAware ADS-B
Tue 07:23:36 AM 53.6540 42.6720 102° East 506 582 35,000  Level FlightAware ADS-B
Tue 07:24:19 AM 53.6450 42.8420 95° East 509 586 35,000  Level FlightAware ADS-B
Tue 07:24:47 AM 53.6410 42.9520 93° East 509 586 35,000  Level FlightAware ADS-B
Tue 07:25:34 AM 53.6350 43.1430 93° East 511 588 35,000  Level FlightAware ADS-B
Tue 07:26:06 AM 53.6310 43.2650 93° East 513 590 35,000  Level FlightAware ADS-B
Tue 07:26:44 AM 53.6260 43.4210 93° East 516 594 35,000  Level FlightAware ADS-B
Tue 07:27:17 AM 53.6210 43.5510 94° East 518 596 35,000  Level FlightAware ADS-B
Tue 07:27:57 AM 53.6150 43.7130 94° East 518 596 35,000  Level FlightAware ADS-B
Tue 07:28:32 AM 53.6100 43.8520 93° East 518 596 35,000  Level FlightAware ADS-B
Tue 07:29:00 AM 53.6060 43.9660 93° East 520 598 35,000  Level FlightAware ADS-B
Tue 07:30:01 AM 53.5960 44.2120 94° East 525 604 35,000  Level FlightAware ADS-B
Tue 07:30:36 AM 53.5930 44.3540 92° East 526 605 35,000  Level FlightAware ADS-B
Tue 07:31:21 AM 53.5880 44.5350 93° East 525 604 35,000  Level FlightAware ADS-B
Tue 07:32:01 AM 53.5830 44.6980 93° East 522 601 35,000  Level FlightAware ADS-B
Tue 07:32:37 AM 53.5780 44.8460 93° East 522 601 35,000  Level FlightAware ADS-B
Tue 07:33:25 AM 53.5720 45.0390 93° East 522 601 35,000  Level FlightAware ADS-B
Tue 07:33:55 AM 53.5600 45.1610 99° East 519 597 35,000  Level FlightAware ADS-B
Tue 07:34:30 AM 53.5400 45.2930 104° East 517 595 35,000  Level FlightAware ADS-B
Tue 07:35:07 AM 53.5080 45.4300 111° Southeast 515 593 35,000  Level FlightAware ADS-B
Tue 07:36:10 AM 53.4520 45.6640 112° Southeast 515 593 35,000  Level FlightAware ADS-B
Tue 07:36:40 AM 53.4240 45.7740 113° Southeast 516 594 35,000  Level FlightAware ADS-B
Tue 07:37:42 AM 53.3660 46.0030 113° Southeast 520 598 35,000  Level FlightAware ADS-B
Tue 07:38:24 AM 53.3270 46.1560 113° Southeast 519 597 35,000  Level FlightAware ADS-B
Tue 07:38:59 AM 53.2940 46.2850 113° Southeast 518 596 35,000  Level FlightAware ADS-B
Tue 07:39:39 AM 53.2570 46.4310 113° Southeast 516 594 35,000  Level FlightAware ADS-B
Tue 07:40:19 AM 53.2190 46.5780 113° Southeast 515 593 35,000  Level FlightAware ADS-B
Tue 07:40:49 AM 53.1900 46.6870 114° Southeast 517 595 35,000  Level FlightAware ADS-B
Tue 07:41:34 AM 53.1470 46.8510 114° Southeast 517 595 35,000  Level FlightAware ADS-B
Tue 07:42:09 AM 53.1140 46.9770 114° Southeast 518 596 35,000  Level FlightAware ADS-B
Tue 07:42:54 AM 53.0700 47.1410 114° Southeast 513 590 35,000  Level FlightAware ADS-B
Tue 07:43:29 AM 53.0360 47.2670 114° Southeast 512 589 35,000  Level FlightAware ADS-B
Tue 07:43:59 AM 53.0080 47.3740 113° Southeast 510 587 35,000  Level FlightAware ADS-B
Tue 07:44:49 AM 52.9600 47.5500 114° Southeast 509 586 35,000  Level FlightAware ADS-B
Tue 07:45:54 AM 52.8960 47.7830 114° Southeast 515 593 35,000  Level FlightAware ADS-B
Tue 07:46:24 AM 52.8670 47.8900 114° Southeast 515 593 35,000  Level FlightAware ADS-B
Tue 07:47:39 AM 52.7930 48.1560 115° Southeast 514 592 35,000  Level FlightAware ADS-B
Tue 07:48:09 AM 52.7630 48.2650 114° Southeast 512 589 35,000  Level FlightAware ADS-B
Tue 07:48:49 AM 52.7230 48.4060 115° Southeast 512 589 35,000  Level FlightAware ADS-B
Tue 07:49:39 AM 52.6730 48.5830 115° Southeast 514 592 35,000  Level FlightAware ADS-B
Tue 07:50:15 AM 52.6410 48.6970 115° Southeast 515 593 35,000  Level FlightAware ADS-B
Tue 07:51:19 AM 52.5730 48.9380 115° Southeast 514 592 35,000  Level FlightAware ADS-B
Tue 07:51:49 AM 52.5430 49.0430 115° Southeast 514 592 35,000  Level FlightAware ADS-B
Tue 07:52:24 AM 52.5080 49.1650 115° Southeast 515 593 35,000  Level FlightAware ADS-B
Tue 07:52:59 AM 52.4720 49.2900 115° Southeast 513 590 35,000  Level FlightAware ADS-B
Tue 07:53:34 AM 52.4360 49.4120 116° Southeast 512 589 35,000  Level FlightAware ADS-B
Tue 07:54:24 AM 52.3860 49.5840 115° Southeast 512 589 35,000  Level FlightAware ADS-B
Tue 07:54:49 AM 52.3600 49.6740 115° Southeast 511 588 35,000  Level FlightAware ADS-B
Tue 07:55:19 AM 52.3320 49.7690 116° Southeast 510 587 35,000  Level FlightAware ADS-B
Tue 07:55:49 AM 52.2980 49.8810 116° Southeast 510 587 35,000  Level FlightAware ADS-B
Tue 07:56:29 AM 52.2580 50.0170 116° Southeast 509 586 35,000  Level FlightAware ADS-B
Tue 07:57:34 AM 52.1900 50.2420 116° Southeast 513 590 35,000  Level FlightAware ADS-B
Tue 07:58:09 AM 52.1460 50.3580 122° Southeast 508 585 35,000  Level FlightAware ADS-B
Tue 07:58:39 AM 52.1030 50.4480 128° Southeast 504 580 35,000  Level FlightAware ADS-B
Tue 07:59:19 AM 52.0390 50.5560 134° Southeast 496 571 35,000  Level FlightAware ADS-B
Tue 07:59:59 AM 51.9680 50.6500 141° Southeast 491 565 35,000  Level FlightAware ADS-B
Tue 08:00:24 AM 51.9220 50.7020 145° Southeast 492 566 35,000  Level FlightAware ADS-B
Tue 08:01:34 AM 51.7940 50.8530 144° Southeast 489 563 35,000  Level FlightAware ADS-B
Tue 08:01:59 AM 51.7470 50.9050 146° Southeast 489 563 35,000  Level FlightAware ADS-B
Tue 08:02:39 AM 51.6730 50.9870 145° Southeast 490 564 35,000  Level FlightAware ADS-B
Tue 08:03:14 AM 51.6070 51.0580 146° Southeast 490 564 35,000  Level FlightAware ADS-B
Tue 08:03:49 AM 51.5410 51.1270 147° Southeast 490 564 35,000  Level FlightAware ADS-B
Tue 08:04:39 AM 51.4470 51.2260 147° Southeast 489 563 35,000  Level FlightAware ADS-B
Tue 08:05:39 AM 51.3320 51.3470 147° Southeast 490 564 35,000  Level FlightAware ADS-B
Tue 08:06:04 AM 51.2850 51.3960 147° Southeast 489 563 35,000  Level FlightAware ADS-B
Tue 08:06:41 AM 51.2160 51.4680 147° Southeast 486 559 35,000  Level FlightAware ADS-B
Tue 08:07:42 AM 51.1130 51.6040 140° Southeast 491 565 35,000  Level FlightAware ADS-B
Tue 08:08:12 AM 51.0670 51.6890 131° Southeast 494 568 35,000  Level FlightAware ADS-B
Tue 08:09:32 AM 50.9520 51.9170 129° Southeast 495 570 35,000  Level FlightAware ADS-B
Tue 08:10:44 AM 51.0490 51.7260 309° West 495 570 35,000  Level FlightAware ADS-B
Tue 08:12:00 AM 50.8690 52.0760 129° Southeast 495 570 35,000  Level FlightAware ADS-B
Tue 08:13:11 AM 50.7820 52.2460 129° Southeast 495 570 35,000  Level FlightAware ADS-B
Tue 08:13:36 AM 50.7300 52.3420 131° Southeast 495 570 35,000  Level FlightAware ADS-B
Tue 08:14:08 AM 50.6600 52.4730 130° Southeast 496 571 35,000  Level FlightAware ADS-B
Tue 08:14:56 AM 50.5860 52.6150 129° Southeast 497 572 35,000  Level FlightAware ADS-B
Tue 08:15:36 AM 50.5350 52.7090 130° Southeast 498 573 35,000  Level FlightAware ADS-B
Tue 08:16:08 AM 50.4790 52.8130 130° Southeast 496 571 35,000  Level FlightAware ADS-B
Tue 08:16:26 AM 50.4560 52.8560 130° Southeast 497 572 35,000  Level FlightAware ADS-B
Tue 08:17:17 AM 50.3920 52.9750 130° Southeast 497 572 35,000  Level FlightAware ADS-B
Tue 08:18:04 AM 50.3280 53.0930 130° Southeast 493 567 35,000  Level FlightAware ADS-B
Tue 08:18:51 AM 50.2710 53.1980 130° Southeast 493 567 35,000  Level FlightAware ADS-B
Tue 08:19:50 AM 50.1970 53.3350 130° Southeast 493 567 35,000  Level FlightAware ADS-B
Tue 08:20:26 AM 50.1520 53.4190 130° Southeast 493 567 35,000  Level FlightAware ADS-B
Tue 08:22:01 AM 49.8670 53.9310 131° Southeast 492 566 35,000  Level FlightAware ADS-B
Tue 08:22:37 AM 49.8220 54.0140 130° Southeast 492 566 35,000  Level FlightAware ADS-B
Tue 08:22:58 AM 49.7670 54.1050 133° Southeast 492 566 35,000  Level FlightAware ADS-B
Tue 08:23:49 AM 49.7020 54.2200 131° Southeast 492 566 35,000  Level FlightAware ADS-B
Tue 08:24:25 AM 49.6570 54.3010 131° Southeast 492 566 35,000  Level FlightAware ADS-B
Tue 08:25:01 AM 49.6110 54.3820 131° Southeast 492 566 35,000  Level FlightAware ADS-B
Tue 08:26:00 AM 49.4980 54.5780 132° Southeast 489 563 35,000  Level FlightAware ADS-B
Tue 08:26:33 AM 49.4550 54.6520 132° Southeast 489 563 35,000  Level FlightAware ADS-B
Tue 08:27:10 AM 49.4090 54.7340 131° Southeast 489 563 35,000  Level FlightAware ADS-B
Tue 08:28:10 AM 49.3330 54.8680 131° Southeast 489 563 35,000  Level FlightAware ADS-B
Tue 08:28:46 AM 49.2880 54.9480 131° Southeast 489 563 35,000  Level FlightAware ADS-B
Tue 08:29:22 AM 49.2420 55.0280 131° Southeast 489 563 35,000  Level FlightAware ADS-B
Tue 08:29:58 AM 49.1970 55.1080 131° Southeast 489 563 35,000  Level FlightAware ADS-B
Tue 08:30:34 AM 49.1510 55.1880 131° Southeast 489 563 35,000  Level FlightAware ADS-B
Tue 08:31:10 AM 49.1060 55.2680 131° Southeast 489 563 35,000  Level FlightAware ADS-B
Tue 08:31:46 AM 49.0600 55.3480 131° Southeast 489 563 35,000  Level FlightAware ADS-B
Tue 08:32:59 AM 48.9680 55.5090 131° Southeast 489 563 35,000  Level FlightAware ADS-B
Tue 08:33:35 AM 48.9230 55.5890 131° Southeast 489 563 35,000  Level FlightAware ADS-B
Tue 08:34:47 AM 48.8320 55.7480 131° Southeast 489 563 35,000  Level FlightAware ADS-B
Tue 08:35:12 AM 48.8010 55.8030 131° Southeast 489 563 35,000  Level FlightAware ADS-B
Tue 08:35:49 AM 48.7540 55.8840 131° Southeast 489 563 35,000  Level FlightAware ADS-B
Tue 08:36:01 AM 48.7390 55.9110 130° Southeast 489 563 35,000 56 Level FlightAware ADS-B
Tue 08:39:00 AM 48.5255 56.4015 123° Southeast  Level Estimated
Tue 08:40:00 AM 48.4535 56.5650 124° Southeast  Level Estimated
Tue 08:41:00 AM 48.3812 56.7280 124° Southeast  Level Estimated
Tue 08:42:00 AM 48.3087 56.8905 124° Southeast  Level Estimated
Tue 08:43:00 AM 48.2360 57.0526 124° Southeast  Level Estimated
Tue 08:44:00 AM 48.1630 57.2142 124° Southeast  Level Estimated
Tue 08:45:00 AM 48.0899 57.3754 124° Southeast  Level Estimated
Tue 08:46:00 AM 48.0165 57.5361 124° Southeast  Level Estimated
Tue 08:47:00 AM 47.9428 57.6964 124° Southeast  Level Estimated
Tue 08:48:00 AM 47.8690 57.8562 125° Southeast  Level Estimated
Tue 08:49:00 AM 47.7949 58.0155 125° Southeast  Level Estimated
Tue 08:50:00 AM 47.7207 58.1744 125° Southeast  Level Estimated
Tue 08:51:00 AM 47.6462 58.3328 125° Southeast  Level Estimated
Tue 08:52:00 AM 47.5714 58.4908 125° Southeast  Level Estimated
Tue 08:53:00 AM 47.4965 58.6483 125° Southeast  Level Estimated
Tue 08:54:00 AM 47.4214 58.8054 125° Southeast  Level Estimated
Tue 08:55:00 AM 47.3460 58.9621 125° Southeast  Level Estimated
Tue 08:56:00 AM 47.2704 59.1183 125° Southeast  Level Estimated
Tue 08:57:00 AM 47.1946 59.2740 126° Southeast  Level Estimated
Tue 08:58:00 AM 47.1186 59.4293 126° Southeast  Level Estimated
Tue 08:59:00 AM 47.0424 59.5841 126° Southeast  Level Estimated
Tue 09:00:00 AM 46.9660 59.7385 126° Southeast  Level Estimated
Tue 09:01:00 AM 46.8894 59.8925 126° Southeast  Level Estimated
Tue 09:02:00 AM 46.8125 60.0461 126° Southeast  Level Estimated
Tue 09:03:00 AM 46.7355 60.1991 126° Southeast  Level Estimated
Tue 09:04:00 AM 46.6583 60.3518 126° Southeast  Level Estimated
Tue 09:05:00 AM 46.5808 60.5040 126° Southeast  Level Estimated
Tue 09:06:00 AM 46.5032 60.6558 127° Southeast  Level Estimated
Tue 09:07:00 AM 46.4254 60.8071 127° Southeast  Level Estimated
Tue 09:08:00 AM 46.3473 60.9581 127° Southeast  Level Estimated
Tue 09:09:00 AM 46.2691 61.1086 127° Southeast  Level Estimated
Tue 09:10:00 AM 46.1906 61.2586 127° Southeast  Level Estimated
Tue 09:11:00 AM 46.1120 61.4082 127° Southeast  Level Estimated
Tue 09:12:00 AM 46.0332 61.5574 127° Southeast  Level Estimated
Tue 09:13:00 AM 45.9542 61.7062 127° Southeast  Level Estimated
Tue 09:14:00 AM 45.8749 61.8546 127° Southeast  Level Estimated
Tue 09:15:00 AM 45.7955 62.0025 128° Southeast  Level Estimated
Tue 09:16:00 AM 45.7160 62.1500 128° Southeast  Level Estimated
Tue 09:17:00 AM 45.6362 62.2971 128° Southeast  Level Estimated
Tue 09:18:00 AM 45.5562 62.4438 128° Southeast  Level Estimated
Tue 09:19:00 AM 45.4760 62.5900 128° Southeast  Level Estimated
Tue 09:20:00 AM 45.3957 62.7359 128° Southeast  Level Estimated
Tue 09:21:00 AM 45.3152 62.8813 128° Southeast  Level Estimated
Tue 09:22:00 AM 45.2345 63.0263 128° Southeast  Level Estimated
Tue 09:23:00 AM 45.1535 63.1709 128° Southeast  Level Estimated
Tue 09:24:00 AM 45.0725 63.3151 128° Southeast  Level Estimated
Tue 09:25:00 AM 44.9912 63.4588 129° Southeast  Level Estimated
Tue 09:26:00 AM 44.9098 63.6022 129° Southeast  Level Estimated
Tue 09:27:00 AM 44.8282 63.7452 129° Southeast  Level Estimated
Tue 09:28:00 AM 44.7463 63.8877 129° Southeast  Level Estimated
Tue 09:29:00 AM 44.6644 64.0299 129° Southeast  Level Estimated
Tue 09:30:00 AM 44.5822 64.1716 129° Southeast  Level Estimated
Tue 09:31:00 AM 44.4999 64.3130 129° Southeast  Level Estimated
Tue 09:32:00 AM 44.4174 64.4539 129° Southeast  Level Estimated
Tue 09:33:00 AM 44.3347 64.5945 129° Southeast  Level Estimated
Tue 09:34:00 AM 44.2519 64.7346 129° Southeast  Level Estimated
Tue 09:35:00 AM 44.1689 64.8744 130° Southeast  Level Estimated
Tue 09:36:00 AM 44.0857 65.0138 130° Southeast  Level Estimated
Tue 09:37:00 AM 44.0024 65.1527 130° Southeast  Level Estimated
Tue 09:38:00 AM 43.9188 65.2913 130° Southeast  Level Estimated
Tue 09:39:00 AM 43.8352 65.4295 130° Southeast  Level Estimated
Tue 09:40:00 AM 43.7513 65.5674 130° Southeast  Level Estimated
Tue 09:41:00 AM 43.6673 65.7048 130° Southeast  Level Estimated
Tue 09:42:00 AM 43.5831 65.8418 130° Southeast  Level Estimated
Tue 09:43:00 AM 43.4987 65.9785 130° Southeast  Level Estimated
Tue 09:44:00 AM 43.4142 66.1148 130° Southeast  Level Estimated
Tue 09:45:00 AM 43.3296 66.2507 131° Southeast  Level Estimated
Tue 09:46:00 AM 43.2447 66.3862 131° Southeast  Level Estimated
Tue 09:47:00 AM 43.1598 66.5213 131° Southeast  Level Estimated
Tue 09:47:33 AM 41.2650 64.8830 131° Southeast 508 585 39,000  Level FlightAware ADS-B
Tue 09:48:00 AM 43.0746 66.6561 131° Southeast  Level Estimated
Tue 09:48:24 AM 41.1700 64.9330 158° South 508 585 39,000  Level FlightAware ADS-B
Tue 09:48:57 AM 41.0820 64.9790 158° South 508 585 39,000  Level FlightAware ADS-B
Tue 09:49:27 AM 41.0170 65.0140 158° South 507 583 39,000  Level FlightAware ADS-B
Tue 09:50:13 AM 40.9160 65.0670 158° South 508 585 39,000  Level FlightAware ADS-B
Tue 09:50:50 AM 40.8350 65.1090 159° South 507 583 39,000  Level FlightAware ADS-B
Tue 09:51:19 AM 40.7720 65.1420 158° South 509 586 39,000  Level FlightAware ADS-B
Tue 09:51:59 AM 40.6850 65.1890 158° South 505 581 39,000  Level FlightAware ADS-B
Tue 09:52:39 AM 40.5990 65.2340 158° South 510 587 39,000  Level FlightAware ADS-B
Tue 09:53:07 AM 40.5340 65.2690 158° South 508 585 39,000  Level FlightAware ADS-B
Tue 09:53:49 AM 40.4430 65.3160 159° South 508 585 39,000  Level FlightAware ADS-B
Tue 09:54:35 AM 40.3460 65.3660 159° South 499 574 39,000  Level FlightAware ADS-B
Tue 09:55:13 AM 40.2620 65.4100 158° South 498 573 39,000  Level FlightAware ADS-B
Tue 09:55:43 AM 40.1980 65.4430 159° South 503 579 39,000  Level FlightAware ADS-B
Tue 09:56:29 AM 40.0970 65.4950 159° South 509 586 39,000  Level FlightAware ADS-B
Tue 09:57:05 AM 40.0200 65.5340 159° South 507 583 39,000  Level FlightAware ADS-B
Tue 09:57:37 AM 39.9500 65.5710 158° South 512 589 39,000  Level FlightAware ADS-B
Tue 09:58:13 AM 39.8700 65.6120 159° South 513 590 39,000  Level FlightAware ADS-B
Tue 09:58:47 AM 39.8000 65.6480 158° South 511 588 39,000  Level FlightAware ADS-B
Tue 09:59:17 AM 39.7280 65.6850 158° South 512 589 39,000  Level FlightAware ADS-B
Tue 09:59:59 AM 39.6360 65.7310 159° South 511 588 39,000  Level FlightAware ADS-B
Tue 10:00:31 AM 39.5720 65.7630 159° South 511 588 39,000  Level FlightAware ADS-B
Tue 10:01:21 AM 39.4540 65.8230 159° South 517 595 39,000  Level FlightAware ADS-B
Tue 10:01:43 AM 39.4060 65.8470 159° South 518 596 39,000  Level FlightAware ADS-B
Tue 10:02:27 AM 39.3080 65.8960 159° South 516 594 39,000  Level FlightAware ADS-B
Tue 10:03:03 AM 39.2290 65.9360 159° South 516 594 39,000  Level FlightAware ADS-B
Tue 10:03:31 AM 39.1680 65.9660 159° South 517 595 39,000  Level FlightAware ADS-B
Tue 10:04:07 AM 39.0890 66.0060 159° South 514 592 39,000  Level FlightAware ADS-B
Tue 10:05:11 AM 38.9690 66.0680 158° South 514 592 39,000  Level FlightAware ADS-B
Tue 10:05:47 AM 38.9010 66.1030 158° South 514 592 39,000  Level FlightAware ADS-B
Tue 10:06:24 AM 38.8320 66.1390 158° South 514 592 39,000  Level FlightAware ADS-B
Tue 10:07:01 AM 38.7620 66.1750 158° South 514 592 39,000  Level FlightAware ADS-B
Tue 10:07:37 AM 38.6950 66.2100 158° South 514 592 39,000  Level FlightAware ADS-B
Tue 10:08:37 AM 38.5820 66.2680 158° South 514 592 39,000  Level FlightAware ADS-B
Tue 10:09:27 AM 38.4890 66.3170 158° South 514 592 39,000  Level FlightAware ADS-B
Tue 10:10:03 AM 38.4210 66.3510 159° South 514 592 39,000  Level FlightAware ADS-B
Tue 10:10:40 AM 38.3520 66.3870 158° South 514 592 39,000  Level FlightAware ADS-B
Tue 10:11:22 AM 38.2730 66.4280 158° South 514 592 39,000  Level FlightAware ADS-B
Tue 10:11:34 AM 38.2510 66.4390 159° South 514 592 39,000  Level FlightAware ADS-B
Tue 10:12:33 AM 38.1400 66.4960 158° South 514 592 39,000  Level FlightAware ADS-B
Tue 10:13:19 AM 38.0540 66.5400 158° South 514 592 39,000  Level FlightAware ADS-B
Tue 10:13:55 AM 37.9860 66.5750 158° South 514 592 39,000  Level FlightAware ADS-B
Tue 10:16:00 AM 37.8198 66.8464 128° Southeast  Level Estimated
Tue 10:17:00 AM 37.7398 66.9762 128° Southeast  Level Estimated
Tue 10:18:00 AM 37.6596 67.1057 128° Southeast  Level Estimated
Tue 10:19:00 AM 37.5794 67.2350 128° Southeast  Level Estimated
Tue 10:20:00 AM 37.4990 67.3640 128° Southeast  Level Estimated
Tue 10:21:00 AM 37.4184 67.4927 128° Southeast  Level Estimated
Tue 10:22:00 AM 37.3377 67.6211 128° Southeast  Level Estimated
Tue 10:23:00 AM 37.2569 67.7492 128° Southeast  Level Estimated
Tue 10:24:00 AM 37.1759 67.8771 128° Southeast  Level Estimated
Tue 10:25:00 AM 37.0947 68.0047 129° Southeast  Level Estimated
Tue 10:26:00 AM 37.0135 68.1320 129° Southeast  Level Estimated
Tue 10:27:00 AM 36.9321 68.2591 129° Southeast  Level Estimated
Tue 10:28:00 AM 36.8506 68.3858 129° Southeast  Level Estimated
Tue 10:29:00 AM 36.7689 68.5124 129° Southeast  Level Estimated
Tue 10:30:00 AM 36.6871 68.6386 129° Southeast  Level Estimated
Tue 10:31:00 AM 36.6052 68.7646 129° Southeast  Level Estimated
Tue 10:32:00 AM 36.5232 68.8903 129° Southeast  Level Estimated
Tue 10:33:00 AM 36.4410 69.0157 129° Southeast  Level Estimated
Tue 10:34:00 AM 36.3586 69.1409 129° Southeast  Level Estimated
Tue 10:35:00 AM 36.2762 69.2658 129° Southeast  Level Estimated
Tue 10:36:00 AM 36.1936 69.3904 129° Southeast  Level Estimated
Tue 10:37:00 AM 36.1109 69.5148 129° Southeast  Level Estimated
Tue 10:38:00 AM 36.0281 69.6389 130° Southeast  Level Estimated
Tue 10:39:00 AM 35.9451 69.7628 130° Southeast  Level Estimated
Tue 10:40:00 AM 35.8620 69.8864 130° Southeast  Level Estimated
Tue 10:41:00 AM 35.7788 70.0097 130° Southeast  Level Estimated
Tue 10:42:00 AM 35.6954 70.1328 130° Southeast  Level Estimated
Tue 10:43:00 AM 35.6120 70.2556 130° Southeast  Level Estimated
Tue 10:44:00 AM 35.5284 70.3782 130° Southeast  Level Estimated
Tue 10:45:00 AM 35.4447 70.5005 130° Southeast  Level Estimated
Tue 10:46:00 AM 35.3608 70.6226 130° Southeast  Level Estimated
Tue 10:47:00 AM 35.2769 70.7444 130° Southeast  Level Estimated
Tue 10:48:00 AM 35.1928 70.8659 130° Southeast  Level Estimated
Tue 10:49:00 AM 35.1086 70.9872 130° Southeast  Level Estimated
Tue 10:49:43 AM 33.7320 70.5020 130° Southeast 506 582 39,000  Level FlightAware ADS-B
Tue 10:50:00 AM 35.0242 71.1083 130° Southeast  Level Estimated
Tue 10:50:21 AM 33.6400 70.5230 169° South 493 567 39,000  Level FlightAware ADS-B
Tue 10:50:55 AM 33.5590 70.5330 174° South 498 573 39,000  Level FlightAware ADS-B
Tue 10:51:59 AM 33.4110 70.5500 175° South 507 583 39,000  Level FlightAware ADS-B
Tue 10:52:31 AM 33.3360 70.5580 175° South 507 583 39,000  Level FlightAware ADS-B
Tue 10:53:09 AM 33.2480 70.5660 176° South 492 566 39,000  Level FlightAware ADS-B
Tue 10:53:57 AM 33.1390 70.5770 175° South 492 566 39,000  Level FlightAware ADS-B
Tue 10:54:43 AM 33.0340 70.5870 175° South 500 575 39,000  Level FlightAware ADS-B
Tue 10:55:13 AM 32.9650 70.5940 175° South 503 579 39,000  Level FlightAware ADS-B
Tue 10:56:31 AM 32.7860 70.6390 168° South 505 581 39,000  Level FlightAware ADS-B
Tue 10:57:05 AM 32.7070 70.6610 167° South 507 583 39,000  Level FlightAware ADS-B
Tue 10:58:05 AM 32.5720 70.6990 167° South 507 583 39,000  Level FlightAware ADS-B
Tue 10:58:41 AM 32.4920 70.7220 166° South 507 583 39,000  Level FlightAware ADS-B
Tue 10:59:43 AM 32.3510 70.7620 167° South 495 570 39,000  Level FlightAware ADS-B
Tue 11:00:21 AM 32.2720 70.7840 167° South 495 570 39,000  Level FlightAware ADS-B
Tue 11:01:11 AM 32.1560 70.8220 164° South 495 570 39,000  Level FlightAware ADS-B
Tue 11:01:49 AM 32.0730 70.8640 157° South 502 578 39,000  Level FlightAware ADS-B
Tue 11:02:54 AM 31.9460 70.9620 147° Southeast 514 592 39,000  Level FlightAware ADS-B
Tue 11:03:27 AM 31.8890 71.0220 138° Southeast 521 600 39,000  Level FlightAware ADS-B
Tue 11:04:01 AM 31.8360 71.0930 131° Southeast 525 604 39,000  Level FlightAware ADS-B
Tue 11:04:41 AM 31.7790 71.1890 125° Southeast 530 610 39,000  Level FlightAware ADS-B
Tue 11:05:11 AM 31.7430 71.2650 119° Southeast 532 612 39,000  Level FlightAware ADS-B
Tue 11:05:59 AM 31.6860 71.3880 119° Southeast 532 612 39,000  Level FlightAware ADS-B
Tue 11:06:41 AM 31.6380 71.4940 118° Southeast 530 610 39,000  Level FlightAware ADS-B
Tue 11:07:09 AM 31.6060 71.5640 118° Southeast 530 610 39,000  Level FlightAware ADS-B
Tue 11:08:25 AM 31.5200 71.7530 118° Southeast 534 615 39,000  Level FlightAware ADS-B
Tue 11:08:58 AM 31.4780 71.8430 119° Southeast 532 612 39,000  Level FlightAware ADS-B
Tue 11:09:40 AM 31.4290 71.9500 118° Southeast 530 610 39,000  Level FlightAware ADS-B
Tue 11:10:19 AM 31.3850 72.0460 118° Southeast 528 608 39,000  Level FlightAware ADS-B
Tue 11:11:04 AM 31.3400 72.1670 114° Southeast 531 611 39,000  Level FlightAware ADS-B
Tue 11:11:37 AM 31.3230 72.2340 107° East 533 613 39,000  Level FlightAware ADS-B
Tue 11:12:10 AM 31.3040 72.3420 102° East 537 618 39,000  Level FlightAware ADS-B
Tue 11:12:49 AM 31.2960 72.4640 94° East 541 623 39,000  Level FlightAware ADS-B
Tue 11:13:23 AM 31.3000 72.5630 87° East 542 624 39,000  Level FlightAware ADS-B
Tue 11:13:55 AM 31.3100 72.6570 83° East 542 624 39,000  Level FlightAware ADS-B
Tue 11:14:34 AM 31.3230 72.7680 82° East 542 624 39,000  Level FlightAware ADS-B
Tue 11:15:15 AM 31.3370 72.8900 82° East 543 625 39,000  Level FlightAware ADS-B
Tue 11:16:00 AM 31.3520 73.0150 82° East 545 627 39,000  Level FlightAware ADS-B
Tue 11:16:33 AM 31.3610 73.1130 84° East 546 628 39,000  Level FlightAware ADS-B
Tue 11:17:11 AM 31.3700 73.2260 85° East 545 627 39,000  Level FlightAware ADS-B
Tue 11:17:52 AM 31.3800 73.3440 84° East 546 628 39,000  Level FlightAware ADS-B
Tue 11:18:31 AM 31.3910 73.4600 84° East 547 629 39,000  Level FlightAware ADS-B
Tue 11:19:00 AM 31.3980 73.5480 85° East 548 631 39,000  Level FlightAware ADS-B
Tue 11:20:01 AM 31.4130 73.7270 84° East 548 631 39,000  Level FlightAware ADS-B
Tue 11:20:31 AM 31.4230 73.8160 82° East 547 629 39,000  Level FlightAware ADS-B
Tue 11:21:13 AM 31.4340 73.9410 84° East 549 632 39,000  Level FlightAware ADS-B
Tue 11:21:26 AM 31.4350 73.9780 88° East 549 632 39,000  Level FlightAware ADS-B
Tue 11:22:24 AM 31.4220 74.1480 95° East 546 628 39,000  Level FlightAware ADS-B
Tue 11:23:02 AM 31.4010 74.2570 103° East 545 627 39,000  Level FlightAware ADS-B
Tue 11:23:43 AM 31.3790 74.3770 102° East 545 627 39,000  Level FlightAware ADS-B
Tue 11:24:17 AM 31.3630 74.4740 101° East 545 627 39,000  Level FlightAware ADS-B
Tue 11:24:49 AM 31.3460 74.5670 102° East 545 627 39,000  Level FlightAware ADS-B
Tue 11:25:53 AM 31.3010 74.7480 106° East 544 626 39,000  Level FlightAware ADS-B
Tue 11:26:25 AM 31.2790 74.8380 106° East 543 625 39,000  Level FlightAware ADS-B
Tue 11:27:02 AM 31.2530 74.9400 107° East 542 624 39,000  Level FlightAware ADS-B
Tue 11:27:46 AM 31.2220 75.0650 106° East 543 625 39,000  Level FlightAware ADS-B
Tue 11:28:19 AM 31.1980 75.1580 107° East 542 624 39,000  Level FlightAware ADS-B
Tue 11:28:51 AM 31.1760 75.2470 106° East 542 624 39,000  Level FlightAware ADS-B
Tue 11:29:55 AM 31.1300 75.4270 107° East 540 621 39,000  Level FlightAware ADS-B
Tue 11:30:36 AM 31.0970 75.5380 109° East 534 615 39,000  Level FlightAware ADS-B
Tue 11:31:19 AM 31.0580 75.6550 111° Southeast 536 617 39,000  Level FlightAware ADS-B
Tue 11:32:19 AM 31.0050 75.8150 111° Southeast 535 616 39,000  Level FlightAware ADS-B
Tue 11:33:10 AM 30.9600 75.9490 111° Southeast 532 612 39,000  Level FlightAware ADS-B
Tue 11:33:45 AM 30.9280 76.0450 111° Southeast 535 616 39,000  Level FlightAware ADS-B
Tue 11:34:09 AM 30.9060 76.1090 112° Southeast 536 617 39,000  Level FlightAware ADS-B
Tue 11:35:15 AM 30.8450 76.2880 112° Southeast 539 620 39,000  Level FlightAware ADS-B
Tue 11:35:53 AM 30.8100 76.3900 112° Southeast 537 618 39,000  Level FlightAware ADS-B
Tue 11:36:29 AM 30.7770 76.4860 112° Southeast 536 617 39,000  Level FlightAware ADS-B
Tue 11:37:05 AM 30.7440 76.5820 112° Southeast 537 618 39,000  Level FlightAware ADS-B
Tue 11:37:57 AM 30.6960 76.7200 112° Southeast 535 616 39,000  Level FlightAware ADS-B
Tue 11:38:38 AM 30.6490 76.8210 118° Southeast 527 606 39,000  Level FlightAware ADS-B
Tue 11:39:14 AM 30.6020 76.8990 125° Southeast 520 598 39,000  Level FlightAware ADS-B
Tue 11:40:03 AM 30.5250 77.0140 128° Southeast 520 598 39,000  Level FlightAware ADS-B
Tue 11:41:01 AM 30.4340 77.1340 131° Southeast 510 587 39,000  Level FlightAware ADS-B
Tue 11:41:34 AM 30.3760 77.1910 140° Southeast 502 578 39,000  Level FlightAware ADS-B
Tue 11:42:03 AM 30.3240 77.2340 144° Southeast 496 571 39,000  Level FlightAware ADS-B
Tue 11:43:11 AM 30.1860 77.3220 151° Southeast 482 555 39,000  Level FlightAware ADS-B
Tue 11:43:51 AM 30.1080 77.3690 152° Southeast 477 549 39,000  Level FlightAware ADS-B
Tue 11:44:32 AM 30.0280 77.4170 153° Southeast 481 554 39,000  Level FlightAware ADS-B
Tue 11:45:05 AM 29.9640 77.4630 148° Southeast 494 568 39,000  Level FlightAware ADS-B
Tue 11:45:25 AM 29.9290 77.4940 142° Southeast 503 579 39,000  Level FlightAware ADS-B
Tue 11:46:08 AM 29.8610 77.5560 142° Southeast 507 583 39,000  Level FlightAware ADS-B
Tue 11:46:47 AM 29.7870 77.6230 142° Southeast 503 579 39,000  Level FlightAware ADS-B
Tue 11:47:17 AM 29.7400 77.6640 143° Southeast 503 579 39,000  Level FlightAware ADS-B
Tue 11:48:11 AM 29.6330 77.7600 142° Southeast 502 578 39,000  Level FlightAware ADS-B
Tue 11:49:17 AM 29.5090 77.8690 143° Southeast 501 577 39,000  Level FlightAware ADS-B
Tue 11:49:52 AM 29.4570 77.9160 142° Southeast 501 577 39,000  Level FlightAware ADS-B
Tue 11:50:29 AM 29.3770 77.9870 142° Southeast 501 577 39,000  Level FlightAware ADS-B
Tue 11:51:02 AM 29.3170 78.0390 143° Southeast 504 580 39,000  Level FlightAware ADS-B
Tue 11:52:08 AM 29.2080 78.1350 142° Southeast 502 578 39,000  Level FlightAware ADS-B
Tue 11:53:13 AM 29.0770 78.2500 142° Southeast 495 570 39,000  Level FlightAware ADS-B
Tue 11:53:54 AM 29.0020 78.3160 142° Southeast 494 568 39,000  Level FlightAware ADS-B
Tue 11:54:31 AM 28.9390 78.3710 143° Southeast 497 572 39,000  Level FlightAware ADS-B
Tue 11:55:04 AM 28.8850 78.4180 143° Southeast 497 572 39,000  Level FlightAware ADS-B
Tue 11:55:36 AM 28.8170 78.4780 142° Southeast 495 570 39,000  Level FlightAware ADS-B
Tue 11:56:24 AM 28.7280 78.5550 143° Southeast 494 568 39,000  Level FlightAware ADS-B
Tue 11:56:58 AM 28.6770 78.5990 143° Southeast 492 566 39,000  Level FlightAware ADS-B
Tue 11:57:38 AM 28.5940 78.6710 143° Southeast 487 560 39,000  Level FlightAware ADS-B
Tue 11:58:27 AM 28.5100 78.7440 143° Southeast 486 559 39,000  Level FlightAware ADS-B
Tue 11:59:08 AM 28.4460 78.8040 140° Southeast 494 568 39,000  Level FlightAware ADS-B
Tue 11:59:37 AM 28.3810 78.8780 135° Southeast 507 583 39,000  Level FlightAware ADS-B
Tue 12:00:09 PM 28.3280 78.9400 134° Southeast 507 583 39,000  Level FlightAware ADS-B
Tue 12:01:11 PM 28.2260 79.0560 135° Southeast 504 580 39,000  Level FlightAware ADS-B
Tue 12:01:45 PM 28.1780 79.1120 134° Southeast 504 580 39,000  Level FlightAware ADS-B
Tue 12:02:33 PM 28.1110 79.1900 134° Southeast 504 580 39,000  Level FlightAware ADS-B
Tue 12:03:33 PM 28.0290 79.2870 134° Southeast 504 580 39,000  Level FlightAware ADS-B
Tue 12:04:46 PM 27.9280 79.4050 134° Southeast 504 580 39,000  Level FlightAware ADS-B
Tue 12:05:45 PM 27.8470 79.5000 134° Southeast 504 580 39,000  Level FlightAware ADS-B
Tue 12:06:22 PM 27.7960 79.5590 134° Southeast 504 580 39,000  Level FlightAware ADS-B
Tue 12:06:59 PM 27.7450 79.6190 134° Southeast 504 580 39,000  Level FlightAware ADS-B
Tue 12:07:23 PM 27.7120 79.6580 134° Southeast 504 580 39,000  Level FlightAware ADS-B
Tue 12:08:25 PM 27.6270 79.7580 134° Southeast 504 580 39,000  Level FlightAware ADS-B
Tue 12:09:01 PM 27.5770 79.8150 135° Southeast 504 580 39,000  Level FlightAware ADS-B
Tue 12:09:26 PM 27.5430 79.8560 133° Southeast 504 580 39,000  Level FlightAware ADS-B
Tue 12:10:14 PM 27.4770 79.9330 134° Southeast 504 580 39,000  Level FlightAware ADS-B
Tue 12:10:38 PM 27.4440 79.9710 134° Southeast 504 580 39,000  Level FlightAware ADS-B
Tue 12:11:16 PM 27.3910 80.0320 134° Southeast 504 580 39,000  Level FlightAware ADS-B
Tue 12:14:00 PM 27.1413 80.3169 135° Southeast  Level Estimated
Tue 12:15:00 PM 27.0498 80.4208 135° Southeast  Level Estimated
Tue 12:16:00 PM 26.9583 80.5245 135° Southeast  Level Estimated
Tue 12:17:00 PM 26.8666 80.6281 135° Southeast  Level Estimated
Tue 12:18:00 PM 26.7749 80.7315 135° Southeast  Level Estimated
Tue 12:19:00 PM 26.6831 80.8347 135° Southeast  Level Estimated
Tue 12:20:00 PM 26.5912 80.9378 135° Southeast  Level Estimated
Tue 12:21:00 PM 26.4993 81.0407 135° Southeast  Level Estimated
Tue 12:22:00 PM 26.4073 81.1435 135° Southeast  Level Estimated
Tue 12:23:00 PM 26.3152 81.2460 135° Southeast  Level Estimated
Tue 12:24:00 PM 26.2230 81.3484 135° Southeast  Level Estimated
Tue 12:25:00 PM 26.1308 81.4507 135° Southeast  Level Estimated
Tue 12:26:00 PM 26.0385 81.5528 135° Southeast  Level Estimated
Tue 12:27:00 PM 25.9461 81.6547 135° Southeast  Level Estimated
Tue 12:28:00 PM 25.8537 81.7565 135° Southeast  Level Estimated
Tue 12:29:00 PM 25.7612 81.8581 135° Southeast  Level Estimated
Tue 12:30:00 PM 25.6686 81.9595 135° Southeast  Level Estimated
Tue 12:31:00 PM 25.5759 82.0608 135° Southeast  Level Estimated
Tue 12:32:00 PM 25.4832 82.1620 135° Southeast  Level Estimated
Tue 12:33:00 PM 25.3904 82.2630 135° Southeast  Level Estimated
Tue 12:34:00 PM 25.2975 82.3638 136° Southeast  Level Estimated
Tue 12:35:00 PM 25.2046 82.4645 136° Southeast  Level Estimated
Tue 12:36:00 PM 25.1116 82.5650 136° Southeast  Level Estimated
Tue 12:37:00 PM 25.0185 82.6653 136° Southeast  Level Estimated
Tue 12:38:00 PM 24.9254 82.7655 136° Southeast  Level Estimated
Tue 12:39:00 PM 24.8321 82.8656 136° Southeast  Level Estimated
Tue 12:40:00 PM 24.7389 82.9655 136° Southeast  Level Estimated
Tue 12:41:00 PM 24.6455 83.0653 136° Southeast  Level Estimated
Tue 12:42:00 PM 24.5521 83.1649 136° Southeast  Level Estimated
Tue 12:43:00 PM 24.4587 83.2644 136° Southeast  Level Estimated
Tue 12:44:00 PM 24.3651 83.3637 136° Southeast  Level Estimated
Tue 12:45:00 PM 24.2715 83.4628 136° Southeast  Level Estimated
Tue 12:46:00 PM 24.1779 83.5619 136° Southeast  Level Estimated
Tue 12:47:00 PM 24.0841 83.6607 136° Southeast  Level Estimated
Tue 12:47:08 PM 24.0890 84.6050 136° Southeast 497 572 39,000  Level FlightAware ADS-B
Tue 12:47:39 PM 24.0410 84.6660 131° Southeast 499 574 39,000  Level FlightAware ADS-B
Tue 12:48:13 PM 23.9900 84.7290 132° Southeast 500 575 39,000  Level FlightAware ADS-B
Tue 12:49:11 PM 23.8990 84.8410 132° Southeast 501 577 39,000  Level FlightAware ADS-B
Tue 12:50:17 PM 23.8070 84.9560 131° Southeast 500 575 39,000  Level FlightAware ADS-B
Tue 12:51:07 PM 23.7220 85.0600 132° Southeast 498 573 39,000  Level FlightAware ADS-B
Tue 12:51:41 PM 23.6700 85.1230 132° Southeast 498 573 39,000  Level FlightAware ADS-B
Tue 12:52:14 PM 23.6210 85.1840 131° Southeast 496 571 39,000  Level FlightAware ADS-B
Tue 12:53:13 PM 23.5410 85.2840 131° Southeast 496 571 39,000  Level FlightAware ADS-B
Tue 12:53:37 PM 23.5100 85.3220 132° Southeast 496 571 39,000  Level FlightAware ADS-B
Tue 12:54:37 PM 23.4330 85.4180 131° Southeast 496 571 39,000  Level FlightAware ADS-B
Tue 12:55:13 PM 23.3870 85.4760 131° Southeast 496 571 39,000  Level FlightAware ADS-B
Tue 12:55:51 PM 23.3390 85.5370 131° Southeast 496 571 39,000  Level FlightAware ADS-B
Tue 12:56:27 PM 23.2930 85.5950 131° Southeast 496 571 39,000  Level FlightAware ADS-B
Tue 12:57:35 PM 23.1330 85.7800 133° Southeast 491 565 39,000  Level FlightAware ADS-B
Tue 12:58:36 PM 23.0480 85.8850 131° Southeast 490 564 39,000  Level FlightAware ADS-B
Tue 12:59:12 PM 23.0030 85.9420 131° Southeast 490 564 39,000  Level FlightAware ADS-B
Tue 01:00:02 PM 22.9100 86.0500 133° Southeast 487 560 39,000  Level FlightAware ADS-B
Tue 01:00:44 PM 22.8390 86.1170 139° Southeast 480 552 39,000  Level FlightAware ADS-B
Tue 01:01:32 PM 22.7490 86.1810 147° Southeast 475 547 39,000  Level FlightAware ADS-B
Tue 01:02:24 PM 22.6480 86.2290 156° South 465 535 39,000 443 Level FlightAware ADS-B
Tue 01:03:34 PM 22.5040 86.2870 160° South 461 531 39,900 870 Climbing FlightAware ADS-B
Tue 01:04:42 PM 22.3720 86.3470 157° South 471 542 41,000 500 Climbing FlightAware ADS-B
Tue 01:05:46 PM 22.2570 86.4330 145° Southeast 472 543 41,000  Level FlightAware ADS-B
Tue 01:06:11 PM 22.2120 86.4670 145° Southeast 472 543 41,000  Level FlightAware ADS-B
Tue 01:06:51 PM 22.1400 86.5200 146° Southeast 469 540 41,000  Level FlightAware ADS-B
Tue 01:07:27 PM 22.0750 86.5690 145° Southeast 467 537 41,000  Level FlightAware ADS-B
Tue 01:08:32 PM 21.9630 86.6520 145° Southeast 465 535 41,000  Level FlightAware ADS-B
Tue 01:09:34 PM 21.8510 86.7350 145° Southeast 465 535 41,000  Level FlightAware ADS-B
Tue 01:10:10 PM 21.7900 86.7800 146° Southeast 466 536 41,000  Level FlightAware ADS-B
Tue 01:10:46 PM 21.7210 86.8300 146° Southeast 464 534 41,000  Level FlightAware ADS-B
Tue 01:11:16 PM 21.6680 86.8700 145° Southeast 463 533 41,000  Level FlightAware ADS-B
Tue 01:11:38 PM 21.6320 86.8970 145° Southeast 463 533 41,000  Level FlightAware ADS-B
Tue 01:12:59 PM 21.4870 87.0030 146° Southeast 461 531 41,000  Level FlightAware ADS-B
Tue 01:13:33 PM 21.4260 87.0480 146° Southeast 463 533 41,000  Level FlightAware ADS-B
Tue 01:14:38 PM 21.3110 87.1320 146° Southeast 463 533 41,000  Level FlightAware ADS-B
Tue 01:15:18 PM 21.2410 87.1840 145° Southeast 462 532 41,000  Level FlightAware ADS-B
Tue 01:16:17 PM 21.1380 87.2590 146° Southeast 458 527 41,000  Level FlightAware ADS-B
Tue 01:17:23 PM 21.0210 87.3450 146° Southeast 452 520 41,000  Level FlightAware ADS-B
Tue 01:18:19 PM 20.9240 87.4150 146° Southeast 448 516 41,000  Level FlightAware ADS-B
Tue 01:18:50 PM 20.8720 87.4530 146° Southeast 449 517 41,000  Level FlightAware ADS-B
Tue 01:19:30 PM 20.8020 87.5040 146° Southeast 451 519 41,000  Level FlightAware ADS-B
Tue 01:20:06 PM 20.7440 87.5460 146° Southeast 452 520 41,000  Level FlightAware ADS-B
Tue 01:20:50 PM 20.6650 87.6030 146° Southeast 454 522 41,000  Level FlightAware ADS-B
Tue 01:21:30 PM 20.5940 87.6550 146° Southeast 454 522 41,000  Level FlightAware ADS-B
Tue 01:22:02 PM 20.5400 87.6940 146° Southeast 453 521 41,000  Level FlightAware ADS-B
Tue 01:22:29 PM 20.5010 87.7230 145° Southeast 453 521 41,000  Level FlightAware ADS-B
Tue 01:22:58 PM 20.4440 87.7630 147° Southeast 454 522 41,000  Level FlightAware ADS-B
Tue 01:23:48 PM 20.3560 87.8270 146° Southeast 457 526 41,000  Level FlightAware ADS-B
Tue 01:24:13 PM 20.3190 87.8550 145° Southeast 457 526 41,000  Level FlightAware ADS-B
Tue 01:24:50 PM 20.2640 87.8950 146° Southeast 457 526 41,000  Level FlightAware ADS-B
Tue 01:25:16 PM 20.2260 87.9240 144° Southeast 457 526 41,000  Level FlightAware ADS-B
Tue 01:25:59 PM 20.1270 87.9920 147° Southeast 459 528 41,000  Level FlightAware ADS-B
Tue 01:26:56 PM 20.0230 88.0660 146° Southeast 460 529 41,000  Level FlightAware ADS-B
Tue 01:27:25 PM 19.9810 88.0980 144° Southeast 460 529 41,000  Level FlightAware ADS-B
Tue 01:28:02 PM 19.9260 88.1390 145° Southeast 460 529 41,000  Level FlightAware ADS-B
Tue 01:29:02 PM 19.8370 88.2050 145° Southeast 460 529 41,000  Level FlightAware ADS-B
Tue 01:30:02 PM 19.6970 88.3000 147° Southeast 458 527 41,000  Level FlightAware ADS-B
Tue 01:30:30 PM 19.6560 88.3300 145° Southeast 458 527 41,000  Level FlightAware ADS-B
Tue 01:31:18 PM 19.5850 88.3830 145° Southeast 458 527 41,000  Level FlightAware ADS-B
Tue 01:32:06 PM 19.4870 88.4510 147° Southeast 460 529 41,000  Level FlightAware ADS-B
Tue 01:32:42 PM 19.4340 88.4910 145° Southeast 460 529 41,000  Level FlightAware ADS-B
Tue 01:33:17 PM 19.3820 88.5290 145° Southeast 460 529 41,000  Level FlightAware ADS-B
Tue 01:33:53 PM 19.3290 88.5690 145° Southeast 460 529 41,000  Level FlightAware ADS-B
Tue 01:34:29 PM 19.2750 88.6080 146° Southeast 460 529 41,000  Level FlightAware ADS-B
Tue 01:35:03 PM 19.2250 88.6460 144° Southeast 460 529 41,000  Level FlightAware ADS-B
Tue 01:35:27 PM 19.1890 88.6720 146° Southeast 460 529 41,000  Level FlightAware ADS-B
Tue 01:36:15 PM 19.1180 88.7250 145° Southeast 460 529 41,000  Level FlightAware ADS-B
Tue 01:36:39 PM 19.0830 88.7510 145° Southeast 460 529 41,000  Level FlightAware ADS-B
Tue 01:37:39 PM 18.9940 88.8170 145° Southeast 460 529 41,000  Level FlightAware ADS-B
Tue 01:38:04 PM 18.9570 88.8450 144° Southeast 460 529 41,000  Level FlightAware ADS-B
Tue 01:39:06 PM 18.8650 88.9130 145° Southeast 460 529 41,000  Level FlightAware ADS-B
Tue 01:39:42 PM 18.8110 88.9520 146° Southeast 460 529 41,000  Level FlightAware ADS-B
Tue 01:40:20 PM 18.7550 88.9940 145° Southeast 460 529 41,000  Level FlightAware ADS-B
Tue 01:41:09 PM 18.6820 89.0470 145° Southeast 460 529 41,000  Level FlightAware ADS-B
Tue 01:41:21 PM 18.6650 89.0600 144° Southeast 460 529 41,000  Level FlightAware ADS-B
Tue 01:44:00 PM 18.4083 89.3028 138° Southeast  Level Estimated
Tue 01:45:00 PM 18.3114 89.3942 138° Southeast  Level Estimated
Tue 01:46:00 PM 18.2144 89.4856 138° Southeast  Level Estimated
Tue 01:47:00 PM 18.1174 89.5768 138° Southeast  Level Estimated
Tue 01:48:00 PM 18.0203 89.6679 138° Southeast  Level Estimated
Tue 01:49:00 PM 17.9232 89.7590 138° Southeast  Level Estimated
Tue 01:50:00 PM 17.8261 89.8499 138° Southeast  Level Estimated
Tue 01:51:00 PM 17.7289 89.9407 138° Southeast  Level Estimated
Tue 01:52:00 PM 17.6317 90.0314 138° Southeast  Level Estimated
Tue 01:53:00 PM 17.5344 90.1221 138° Southeast  Level Estimated
Tue 01:54:00 PM 17.4371 90.2126 138° Southeast  Level Estimated
Tue 01:55:00 PM 17.3397 90.3031 138° Southeast  Level Estimated
Tue 01:56:00 PM 17.2423 90.3934 138° Southeast  Level Estimated
Tue 01:57:00 PM 17.1449 90.4837 138° Southeast  Level Estimated
Tue 01:58:00 PM 17.0474 90.5738 139° Southeast  Level Estimated
Tue 01:59:00 PM 16.9499 90.6639 139° Southeast  Level Estimated
Tue 02:00:00 PM 16.8523 90.7539 139° Southeast  Level Estimated
Tue 02:01:00 PM 16.7547 90.8437 139° Southeast  Level Estimated
Tue 02:02:00 PM 16.6571 90.9335 139° Southeast  Level Estimated
Tue 02:03:00 PM 16.5594 91.0232 139° Southeast  Level Estimated
Tue 02:04:00 PM 16.4617 91.1128 139° Southeast  Level Estimated
Tue 02:05:00 PM 16.3639 91.2023 139° Southeast  Level Estimated
Tue 02:06:00 PM 16.2661 91.2917 139° Southeast  Level Estimated
Tue 02:07:00 PM 16.1683 91.3811 139° Southeast  Level Estimated
Tue 02:08:00 PM 16.0705 91.4703 139° Southeast  Level Estimated
Tue 02:09:00 PM 15.9726 91.5594 139° Southeast  Level Estimated
Tue 02:10:00 PM 15.8746 91.6485 139° Southeast  Level Estimated
Tue 02:11:00 PM 15.7767 91.7375 139° Southeast  Level Estimated
Tue 02:12:00 PM 15.6786 91.8264 139° Southeast  Level Estimated
Tue 02:13:00 PM 15.5806 91.9152 139° Southeast  Level Estimated
Tue 02:14:00 PM 15.4825 92.0039 139° Southeast  Level Estimated
Tue 02:15:00 PM 15.3844 92.0926 139° Southeast  Level Estimated
Tue 02:16:00 PM 15.2863 92.1811 139° Southeast  Level Estimated
Tue 02:17:00 PM 15.1881 92.2696 139° Southeast  Level Estimated
Tue 02:18:00 PM 15.0899 92.3580 139° Southeast  Level Estimated
Tue 02:19:00 PM 14.9916 92.4463 139° Southeast  Level Estimated
Tue 02:20:00 PM 14.8933 92.5345 139° Southeast  Level Estimated
Tue 02:21:00 PM 14.7950 92.6227 139° Southeast  Level Estimated
Tue 02:22:00 PM 14.6966 92.7108 139° Southeast  Level Estimated
Tue 02:23:00 PM 14.5983 92.7988 139° Southeast  Level Estimated
Tue 02:24:00 PM 14.4998 92.8867 139° Southeast  Level Estimated
Tue 02:25:00 PM 14.4014 92.9745 139° Southeast  Level Estimated
Tue 02:26:00 PM 14.3029 93.0622 139° Southeast  Level Estimated
Tue 02:27:00 PM 14.2044 93.1499 139° Southeast  Level Estimated
Tue 02:28:00 PM 14.1058 93.2375 139° Southeast  Level Estimated
Tue 02:29:00 PM 14.0072 93.3251 139° Southeast  Level Estimated
Tue 02:30:00 PM 13.9086 93.4125 139° Southeast  Level Estimated
Tue 02:31:00 PM 13.8100 93.4999 139° Southeast  Level Estimated
Tue 02:32:00 PM 13.7113 93.5872 139° Southeast  Level Estimated
Tue 02:33:00 PM 13.6126 93.6744 139° Southeast  Level Estimated
Tue 02:34:00 PM 13.5139 93.7616 139° Southeast  Level Estimated
Tue 02:35:00 PM 13.4151 93.8487 139° Southeast  Level Estimated
Tue 02:36:00 PM 13.3163 93.9357 139° Southeast  Level Estimated
Tue 02:37:00 PM 13.2175 94.0226 139° Southeast  Level Estimated
Tue 02:38:00 PM 13.1186 94.1095 139° Southeast  Level Estimated
Tue 02:39:00 PM 13.0197 94.1963 139° Southeast  Level Estimated
Tue 02:40:00 PM 12.9208 94.2830 139° Southeast  Level Estimated
Tue 02:41:00 PM 12.8219 94.3697 139° Southeast  Level Estimated
Tue 02:42:00 PM 12.7229 94.4563 140° Southeast  Level Estimated
Tue 02:43:00 PM 12.6239 94.5428 140° Southeast  Level Estimated
Tue 02:44:00 PM 12.5249 94.6293 140° Southeast  Level Estimated
Tue 02:45:00 PM 12.4258 94.7157 140° Southeast  Level Estimated
Tue 02:46:00 PM 12.3267 94.8020 140° Southeast  Level Estimated
Tue 02:47:00 PM 12.2276 94.8883 140° Southeast  Level Estimated
Tue 02:48:00 PM 12.1285 94.9745 140° Southeast  Level Estimated
Tue 02:49:00 PM 12.0294 95.0606 140° Southeast  Level Estimated
Tue 02:50:00 PM 11.9302 95.1467 140° Southeast  Level Estimated
Tue 02:51:00 PM 11.8309 95.2327 140° Southeast  Level Estimated
Tue 02:52:00 PM 11.7317 95.3186 140° Southeast  Level Estimated
Tue 02:53:00 PM 11.6324 95.4045 140° Southeast  Level Estimated
Tue 02:54:00 PM 11.5331 95.4903 140° Southeast  Level Estimated
Tue 02:55:00 PM 11.4338 95.5761 140° Southeast  Level Estimated
Tue 02:56:00 PM 11.3345 95.6618 140° Southeast  Level Estimated
Tue 02:57:00 PM 11.2351 95.7474 140° Southeast  Level Estimated
Tue 02:57:51 PM 11.4720 96.6110 140° Southeast 472 543 41,000  Level FlightAware ADS-B
Tue 02:58:00 PM 11.1357 95.8330 140° Southeast  Level Estimated
Tue 02:58:26 PM 11.4120 96.6420 153° Southeast 472 543 41,000  Level FlightAware ADS-B
Tue 02:58:44 PM 11.3680 96.6640 154° Southeast 470 541 41,000  Level FlightAware ADS-B
Tue 02:59:56 PM 11.2270 96.7350 154° Southeast 470 541 41,000  Level FlightAware ADS-B
Tue 03:00:58 PM 11.1090 96.7950 153° Southeast 468 539 41,000  Level FlightAware ADS-B
Tue 03:02:02 PM 10.9810 96.8600 154° Southeast 453 521 41,000  Level FlightAware ADS-B
Tue 03:02:46 PM 10.9000 96.9010 154° Southeast 444 511 41,000  Level FlightAware ADS-B
Tue 03:03:48 PM 10.7870 96.9580 154° Southeast 441 507 41,000  Level FlightAware ADS-B
Tue 03:04:49 PM 10.6790 97.0130 153° Southeast 444 511 41,000  Level FlightAware ADS-B
Tue 03:05:28 PM 10.6070 97.0490 154° Southeast 444 511 41,000  Level FlightAware ADS-B
Tue 03:06:02 PM 10.5390 97.0830 154° Southeast 447 514 41,000  Level FlightAware ADS-B
Tue 03:06:30 PM 10.4870 97.1100 153° Southeast 446 513 41,000  Level FlightAware ADS-B
Tue 03:07:27 PM 10.3840 97.1620 154° Southeast 444 511 41,000  Level FlightAware ADS-B
Tue 03:08:04 PM 10.3150 97.1970 153° Southeast 441 507 41,000  Level FlightAware ADS-B
Tue 03:09:03 PM 10.2070 97.2510 154° Southeast 443 510 41,000  Level FlightAware ADS-B
Tue 03:09:38 PM 10.1400 97.2850 153° Southeast 447 514 41,000  Level FlightAware ADS-B
Tue 03:10:16 PM 10.0700 97.3200 154° Southeast 446 513 41,000  Level FlightAware ADS-B
Tue 03:10:52 PM 10.0030 97.3540 153° Southeast 446 513 41,000  Level FlightAware ADS-B
Tue 03:10:58 PM 9.9940 97.3580 156° South 447 514 41,000  Level FlightAware ADS-B
Tue 03:12:16 PM 9.8480 97.4320 153° Southeast 450 518 41,000  Level FlightAware ADS-B
Tue 03:12:52 PM 9.7800 97.4660 154° Southeast 449 517 41,000  Level FlightAware ADS-B
Tue 03:13:20 PM 9.7270 97.4930 153° Southeast 446 513 41,000  Level FlightAware ADS-B
Tue 03:13:52 PM 9.6700 97.5220 153° Southeast 444 511 41,000  Level FlightAware ADS-B
Tue 03:14:34 PM 9.5920 97.5620 153° Southeast 445 512 41,000  Level FlightAware ADS-B
Tue 03:15:42 PM 9.4640 97.6270 153° Southeast 448 516 41,000  Level FlightAware ADS-B
Tue 03:16:12 PM 9.4130 97.6600 147° Southeast 450 518 41,000  Level FlightAware ADS-B
Tue 03:16:40 PM 9.3650 97.6940 145° Southeast 451 519 41,000  Level FlightAware ADS-B
Tue 03:17:42 PM 9.2580 97.7680 146° Southeast 442 509 41,000  Level FlightAware ADS-B
Tue 03:18:38 PM 9.1630 97.8330 146° Southeast 444 511 41,000  Level FlightAware ADS-B
Tue 03:19:40 PM 9.0680 97.9150 140° Southeast 449 517 41,000  Level FlightAware ADS-B
Tue 03:20:37 PM 8.9860 98.0040 133° Southeast 455 524 41,000  Level FlightAware ADS-B
Tue 03:21:06 PM 8.9440 98.0500 133° Southeast 455 524 41,000  Level FlightAware ADS-B
Tue 03:21:42 PM 8.8920 98.1070 133° Southeast 457 526 41,000  Level FlightAware ADS-B
Tue 03:22:16 PM 8.8440 98.1590 133° Southeast 460 529 41,000  Level FlightAware ADS-B
Tue 03:22:51 PM 8.7920 98.2150 133° Southeast 463 533 41,000  Level FlightAware ADS-B
Tue 03:23:50 PM 8.7040 98.3080 134° Southeast 466 536 41,000  Level FlightAware ADS-B
Tue 03:24:26 PM 8.6500 98.3660 133° Southeast 466 536 41,000  Level FlightAware ADS-B
Tue 03:24:58 PM 8.6020 98.4170 134° Southeast 462 532 41,000  Level FlightAware ADS-B
Tue 03:25:58 PM 8.5140 98.5080 134° Southeast 459 528 41,000  Level FlightAware ADS-B
Tue 03:26:51 PM 8.4320 98.5850 137° Southeast 461 531 41,000  Level FlightAware ADS-B
Tue 03:27:22 PM 8.3750 98.6170 151° Southeast 463 533 41,000  Level FlightAware ADS-B
Tue 03:28:00 PM 8.3010 98.6570 152° Southeast 465 535 41,000  Level FlightAware ADS-B
Tue 03:28:30 PM 8.2460 98.6880 151° Southeast 464 534 41,000  Level FlightAware ADS-B
Tue 03:29:26 PM 8.1410 98.7470 151° Southeast 464 534 41,000  Level FlightAware ADS-B
Tue 03:29:52 PM 8.0930 98.7740 151° Southeast 462 532 41,000  Level FlightAware ADS-B
Tue 03:30:28 PM 8.0230 98.8130 151° Southeast 457 526 41,000  Level FlightAware ADS-B
Tue 03:31:36 PM 7.9010 98.8820 151° Southeast 455 524 41,000  Level FlightAware ADS-B
Tue 03:32:12 PM 7.8340 98.9200 151° Southeast 453 521 41,000  Level FlightAware ADS-B
Tue 03:33:04 PM 7.7380 98.9740 151° Southeast 455 524 41,000  Level FlightAware ADS-B
Tue 03:33:40 PM 7.6720 99.0110 151° Southeast 457 526 41,000  Level FlightAware ADS-B
Tue 03:34:10 PM 7.6160 99.0420 151° Southeast 458 527 41,000  Level FlightAware ADS-B
Tue 03:34:38 PM 7.5650 99.0710 151° Southeast 465 535 41,000  Level FlightAware ADS-B
Tue 03:35:30 PM 7.4650 99.1270 151° Southeast 463 533 41,000  Level FlightAware ADS-B
Tue 03:36:21 PM 7.3700 99.1800 151° Southeast 463 533 41,000  Level FlightAware ADS-B
Tue 03:37:18 PM 7.2700 99.2510 145° Southeast 459 528 41,000  Level FlightAware ADS-B
Tue 03:37:46 PM 7.2250 99.2870 142° Southeast 458 527 41,000  Level FlightAware ADS-B
Tue 03:38:24 PM 7.1610 99.3400 141° Southeast 459 528 41,000  Level FlightAware ADS-B
Tue 03:39:12 PM 7.0820 99.4080 139° Southeast 462 532 41,000  Level FlightAware ADS-B
Tue 03:39:48 PM 7.0230 99.4590 139° Southeast 466 536 41,000  Level FlightAware ADS-B
Tue 03:40:47 PM 6.9270 99.5440 139° Southeast 470 541 41,000  Level FlightAware ADS-B
Tue 03:41:20 PM 6.8720 99.5910 140° Southeast 482 555 41,000  Level FlightAware ADS-B
Tue 03:42:22 PM 6.7590 99.6730 144° Southeast 480 552 41,000  Level FlightAware ADS-B
Tue 03:42:54 PM 6.6980 99.7110 148° Southeast 482 555 41,000  Level FlightAware ADS-B
Tue 03:43:25 PM 6.6390 99.7460 149° Southeast 482 555 41,000  Level FlightAware ADS-B
Tue 03:44:22 PM 6.5310 99.8150 148° Southeast 483 556 41,000  Level FlightAware ADS-B
Tue 03:44:53 PM 6.4730 99.8530 147° Southeast 481 554 41,000  Level FlightAware ADS-B
Tue 03:45:26 PM 6.4120 99.8930 147° Southeast 480 552 41,000  Level FlightAware ADS-B
Tue 03:46:25 PM 6.3010 99.9660 147° Southeast 481 554 41,000  Level FlightAware ADS-B
Tue 03:47:30 PM 6.1790 100.0450 147° Southeast 483 556 41,000  Level FlightAware ADS-B
Tue 03:48:04 PM 6.1150 100.0880 146° Southeast 482 555 41,000  Level FlightAware ADS-B
Tue 03:49:05 PM 6.0010 100.1620 147° Southeast 483 556 41,000  Level FlightAware ADS-B
Tue 03:49:59 PM 5.9000 100.2280 147° Southeast 483 556 41,000  Level FlightAware ADS-B
Tue 03:50:28 PM 5.8450 100.2640 147° Southeast 484 557 41,000  Level FlightAware ADS-B
Tue 03:51:08 PM 5.7700 100.3130 147° Southeast 486 559 41,000  Level FlightAware ADS-B
Tue 03:51:39 PM 5.7120 100.3510 147° Southeast 483 556 41,000  Level FlightAware ADS-B
Tue 03:52:46 PM 5.5880 100.4330 147° Southeast 477 549 41,000  Level FlightAware ADS-B
Tue 03:53:40 PM 5.4850 100.4900 151° Southeast 473 544 41,000  Level FlightAware ADS-B
Tue 03:54:14 PM 5.4170 100.5270 152° Southeast 472 543 41,000  Level FlightAware ADS-B
Tue 03:54:40 PM 5.3680 100.5540 151° Southeast 472 543 41,000  Level FlightAware ADS-B
Tue 03:55:20 PM 5.2920 100.5970 151° Southeast 475 547 41,000  Level FlightAware ADS-B
Tue 03:55:54 PM 5.2250 100.6340 151° Southeast 474 545 41,000  Level FlightAware ADS-B
Tue 03:56:56 PM 5.1060 100.7010 151° Southeast 475 547 41,000  Level FlightAware ADS-B
Tue 03:57:28 PM 5.0450 100.7350 151° Southeast 476 548 41,000  Level FlightAware ADS-B
Tue 03:58:04 PM 4.9740 100.7740 151° Southeast 475 547 41,000  Level FlightAware ADS-B
Tue 03:58:37 PM 4.9130 100.8080 151° Southeast 473 544 41,000  Level FlightAware ADS-B
Tue 03:58:56 PM 4.8731 100.8304 151° Southeast 471 542 41,000  Level FlightAware ADS-B
Tue 03:59:34 PM 4.7997 100.8712 151° Southeast 468 539 41,000  Level FlightAware ADS-B
Tue 04:00:05 PM 4.7411 100.9038 151° Southeast 467 537 41,000  Level FlightAware ADS-B
Tue 04:00:35 PM 4.6859 100.9346 151° Southeast 468 539 41,000  Level FlightAware ADS-B
Tue 04:01:06 PM 4.6270 100.9673 151° Southeast 468 539 41,000  Level FlightAware ADS-B
Tue 04:01:45 PM 4.5518 101.0092 151° Southeast 465 535 41,000  Level FlightAware ADS-B
Tue 04:02:15 PM 4.4956 101.0405 151° Southeast 466 536 41,000  Level FlightAware ADS-B
Tue 04:03:15 PM 4.3834 101.1029 151° Southeast 466 536 41,000  Level FlightAware ADS-B
Tue 04:03:45 PM 4.3255 101.1351 151° Southeast 467 537 41,000  Level FlightAware ADS-B
Tue 04:04:35 PM 4.2311 101.1876 151° Southeast 467 537 41,000  Level FlightAware ADS-B
Tue 04:05:06 PM 4.1724 101.2203 151° Southeast 471 542 41,000  Level FlightAware ADS-B
Tue 04:05:46 PM 4.0963 101.2626 151° Southeast 472 543 41,000  Level FlightAware ADS-B
Tue 04:06:16 PM 4.0392 101.2943 151° Southeast 472 543 41,000  Level FlightAware ADS-B
Tue 04:06:55 PM 3.9627 101.3368 151° Southeast 472 543 41,000  Level FlightAware ADS-B
Tue 04:07:26 PM 3.9046 101.3691 151° Southeast 472 543 41,000  Level FlightAware ADS-B
Tue 04:08:05 PM 3.8296 101.4108 151° Southeast 473 544 41,000  Level FlightAware ADS-B
Tue 04:08:46 PM 3.7511 101.4543 151° Southeast 472 543 41,000  Level FlightAware ADS-B
Tue 04:09:26 PM 3.6757 101.4962 151° Southeast 471 542 41,000  Level FlightAware ADS-B
Tue 04:10:06 PM 3.5994 101.5385 151° Southeast 470 541 41,000  Level FlightAware ADS-B
Tue 04:10:46 PM 3.5221 101.5814 151° Southeast 473 544 41,000  Level FlightAware ADS-B
Tue 04:11:26 PM 3.4457 101.6238 151° Southeast 473 544 41,000  Level FlightAware ADS-B
Tue 04:12:06 PM 3.3686 101.6666 151° Southeast 473 544 41,000  Level FlightAware ADS-B
Tue 04:12:37 PM 3.3087 101.6998 151° Southeast 474 545 41,000  Level FlightAware ADS-B
Tue 04:13:07 PM 3.2518 101.7314 151° Southeast 475 547 41,000  Level FlightAware ADS-B
Tue 04:13:37 PM 3.1933 101.7639 151° Southeast 476 548 41,000  Level FlightAware ADS-B
Tue 04:14:16 PM 3.1171 101.8061 151° Southeast 477 549 41,000  Level FlightAware ADS-B
Tue 04:14:56 PM 3.0401 101.8488 151° Southeast 476 548 41,000  Level FlightAware ADS-B
Tue 04:15:34 PM 2.9663 101.8897 151° Southeast 476 548 41,000  Level FlightAware ADS-B
Tue 04:16:07 PM 2.9028 101.9249 151° Southeast 476 548 41,000  Level FlightAware ADS-B
Tue 04:17:07 PM 2.7885 101.9882 151° Southeast 474 545 41,000  Level FlightAware ADS-B
Tue 04:17:41 PM 2.7228 102.0246 151° Southeast 473 544 41,000  Level FlightAware ADS-B
Tue 04:19:10 PM 2.5590 102.1150 151° Southeast 471 542 41,000  Level FlightAware ADS-B
Tue 04:19:38 PM 2.5140 102.1400 151° Southeast 471 542 41,000  Level FlightAware ADS-B
Tue 04:20:36 PM 2.4200 102.1920 151° Southeast 471 542 41,000  Level FlightAware ADS-B
Tue 04:21:24 PM 2.3420 102.2360 151° Southeast 471 542 41,000  Level FlightAware ADS-B
Tue 04:22:00 PM 2.2840 102.2680 151° Southeast 471 542 41,000  Level FlightAware ADS-B
Tue 04:22:46 PM 2.2090 102.3090 151° Southeast 471 542 41,000  Level FlightAware ADS-B
Tue 04:23:46 PM 2.1120 102.3630 151° Southeast 471 542 41,000  Level FlightAware ADS-B
Tue 04:24:10 PM 2.0730 102.3850 151° Southeast 471 542 41,000  Level FlightAware ADS-B
Tue 04:25:11 PM 1.9750 102.4400 151° Southeast 471 542 41,000  Level FlightAware ADS-B
Tue 04:26:00 PM 1.8950 102.4840 151° Southeast 471 542 41,000  Level FlightAware ADS-B
Tue 04:26:48 PM 1.8170 102.5270 151° Southeast 471 542 41,000  Level FlightAware ADS-B
Tue 04:28:01 PM 1.6990 102.5920 151° Southeast 471 542 41,000  Level FlightAware ADS-B
Tue 04:28:37 PM 1.6410 102.6250 150° Southeast 471 542 41,000 -7,608 Level FlightAware ADS-B
Tue 04:30:34 PM 1.5800 103.1420 97° East 361 415 21,600 -7,923 Descending FlightAware ADS-B
Tue 04:31:13 PM 1.5250 103.1790 146° Southeast 359 413 20,400 -1,579 Descending FlightAware ADS-B
Tue 04:32:09 PM 1.4460 103.2310 147° Southeast 355 409 19,100 -1,333 Descending FlightAware ADS-B
Tue 04:33:01 PM 1.3790 103.2760 146° Southeast 347 399 18,000 -1,333 Descending FlightAware ADS-B
Tue 04:33:48 PM 1.3130 103.3190 147° Southeast 340 391 16,900 -1,376 Descending FlightAware ADS-B
Tue 04:34:50 PM 1.2400 103.3790 141° Southeast 325 374 15,500 -1,881 Descending FlightAware ADS-B
Tue 04:35:46 PM 1.2020 103.4590 115° Southeast 348 400 13,200 -2,110 Descending FlightAware ADS-B
Tue 04:36:21 PM 1.1790 103.5060 116° Southeast 344 396 12,300 -1,832 Descending FlightAware ADS-B
Tue 04:37:21 PM 1.1380 103.5920 115° Southeast 314 361 10,300 -2,000 Descending FlightAware ADS-B
Tue 04:37:51 PM 1.1220 103.6280 114° Southeast 289 333 9,300 -2,160 Descending FlightAware ADS-B
Tue 04:38:11 PM 1.1120 103.6530 112° Southeast 284 327 8,500 -2,760 Descending FlightAware ADS-B
Tue 04:38:41 PM 1.1210 103.6930 77° East 284 327 7,000 -2,727 Descending FlightAware ADS-B
Tue 04:39:06 PM 1.1330 103.7230 68° East 279 321 6,000 -2,000 Descending FlightAware ADS-B
Tue 04:39:26 PM 1.1420 103.7460 69° East 265 305 5,500 -1,320 Descending FlightAware ADS-B
Tue 04:39:56 PM 1.1550 103.7780 68° East 239 275 4,900 -1,457 Descending FlightAware ADS-B
Tue 04:40:36 PM 1.1710 103.8190 69° East 233 268 3,800 -1,477 Descending FlightAware ADS-B
Tue 04:41:01 PM 1.1810 103.8440 68° East 213 245 3,300 -982 Descending FlightAware ADS-B
Tue 04:41:31 PM 1.1900 103.8690 70° East 198 228 2,900 -806 Descending FlightAware ADS-B
Tue 04:42:08 PM 1.2050 103.9000 64° Northeast 185 213 2,400 -538 Descending FlightAware ADS-B
Tue 04:42:49 PM 1.2280 103.9240 46° Northeast 169 194 2,200 -167 Descending FlightAware ADS-B
Tue 04:43:20 PM 1.2490 103.9350 28° Northeast 172 198 2,200 -441 Level FlightAware ADS-B
Tue 04:43:57 PM 1.2750 103.9460 23° Northeast 151 174 1,700 -833 Descending FlightAware ADS-B
Tue 04:44:32 PM 1.2970 103.9550 22° Northeast 143 165 1,200 -724 Descending FlightAware ADS-B
Tue 04:44:55 PM 1.3100 103.9610 25° Northeast 142 163 1,000 -667 Descending FlightAware ADS-B
Tue 04:45:17 PM 1.3230 103.9670 25° Northeast 139 160 700 -737 Descending FlightAware ADS-B
Tue 04:45:52 PM 1.3440 103.9750 21° North 139 160 300 -615 Descending FlightAware ADS-B
Tue 04:45:56 PM 1.3470 103.9770 34° Northeast 138 159 300  Level FlightAware ADS-B

Login

Don't have an account? Register now (free) for customized features, flight alerts, and more!